S66497 / OY-SRL 7700 Squawk Report (6th of May, 2020)

Time Lat Lon Altitude Heading Speed Vertical Rate
2020-05-06 21:19:51 GMT 50.872040 7.133331 0 227 0 0
2020-05-06 21:19:19 GMT 50.872044 7.133319 0 227 0 0
2020-05-06 21:19:07 GMT 50.872040 7.133331 0 227 0 0
2020-05-06 21:18:56 GMT 50.872078 7.133393 0 227 4 0
2020-05-06 21:18:52 GMT 50.872124 7.133467 0 227 5 0
2020-05-06 21:18:40 GMT 50.872334 7.133827 0 230 6 0
2020-05-06 21:18:37 GMT 50.872375 7.133913 0 230 6 0
2020-05-06 21:18:31 GMT 50.872494 7.134113 0 258 6 0
2020-05-06 21:18:16 GMT 50.872387 7.134692 0 317 11 0
2020-05-06 21:18:05 GMT 50.871971 7.135296 0 317 15 0
2020-05-06 21:18:00 GMT 50.871250 7.136345 0 317 20 0
2020-05-06 21:17:45 GMT 50.870739 7.137089 0 317 19 0
2020-05-06 21:17:42 GMT 50.870590 7.137290 0 317 18 0
2020-05-06 21:17:36 GMT 50.870201 7.137866 0 317 16 0
2020-05-06 21:17:25 GMT 50.869667 7.138634 0 315 12 0
2020-05-06 21:17:14 GMT 50.869354 7.139276 0 292 10 0
2020-05-06 21:17:07 GMT 50.869263 7.139721 0 281 9 0
2020-05-06 21:16:59 GMT 50.869183 7.140390 0 278 14 0
2020-05-06 21:16:49 GMT 50.869072 7.141418 0 278 19 0
2020-05-06 21:16:45 GMT 50.869038 7.141857 0 278 20 0
2020-05-06 21:16:39 GMT 50.868946 7.142754 0 278 19 0
2020-05-06 21:16:32 GMT 50.868851 7.143631 0 278 19 0
2020-05-06 21:16:29 GMT 50.868793 7.144138 0 281 19 0
2020-05-06 21:16:18 GMT 50.868572 7.145462 0 312 26 0
2020-05-06 21:16:08 GMT 50.868038 7.146931 0 309 25 0
2020-05-06 21:15:57 GMT 50.867062 7.148533 0 317 39 0
2020-05-06 21:15:48 GMT 50.865688 7.150497 0 317 62 0
2020-05-06 21:15:36 GMT 50.862534 7.155069 -25 318 110 -64
2020-05-06 21:15:27 GMT 50.859158 7.160034 -25 318 135 -192
2020-05-06 21:15:21 GMT 50.856457 7.163925 25 318 136 -384
2020-05-06 21:15:17 GMT 50.854431 7.166872 75 318 135 -704
2020-05-06 21:15:13 GMT 50.852222 7.169952 125 318 135 -704
2020-05-06 21:15:08 GMT 50.849709 7.173615 175 318 135 -704
2020-05-06 21:15:02 GMT 50.847519 7.176819 250 318 135 -704
2020-05-06 21:14:57 GMT 50.845051 7.180405 300 318 134 -704
2020-05-06 21:14:53 GMT 50.842819 7.183609 375 318 134 -704
2020-05-06 21:14:47 GMT 50.840378 7.187137 425 318 134 -704
2020-05-06 21:14:41 GMT 50.837952 7.190626 475 318 135 -704
2020-05-06 21:14:37 GMT 50.835709 7.193818 550 318 134 -704
2020-05-06 21:14:32 GMT 50.833557 7.197010 600 318 134 -704
2020-05-06 21:14:25 GMT 50.830353 7.201612 700 318 133 -704
2020-05-06 21:14:20 GMT 50.828156 7.204742 750 318 134 -704
2020-05-06 21:14:14 GMT 50.824677 7.209778 850 318 135 -704
2020-05-06 21:14:11 GMT 50.824013 7.210846 875 318 135 -704
2020-05-06 21:14:05 GMT 50.821171 7.214966 925 318 134 -704
2020-05-06 21:13:59 GMT 50.818748 7.218475 1,000 318 133 -704
2020-05-06 21:13:55 GMT 50.816895 7.221061 1,050 318 150 -896
2020-05-06 21:13:51 GMT 50.814701 7.224274 1,075 318 135 -768
2020-05-06 21:13:45 GMT 50.812317 7.227816 1,150 318 138 -768
2020-05-06 21:13:42 GMT 50.810417 7.230530 1,675 318 142 -768
2020-05-06 21:13:34 GMT 50.806740 7.235870 1,400 318 150 -768
2020-05-06 21:13:30 GMT 50.804993 7.238357 1,400 318 150 -768
2020-05-06 21:13:26 GMT 50.802383 7.242069 1,475 318 150 -832
2020-05-06 21:13:23 GMT 50.801468 7.243405 1,450 318 150 -896
2020-05-06 21:13:20 GMT 50.799572 7.246094 1,675 318 150 -896
2020-05-06 21:13:15 GMT 50.797195 7.249451 1,575 318 150 -768
2020-05-06 21:13:12 GMT 50.795013 7.252535 1,625 317 150 -832
2020-05-06 21:13:08 GMT 50.792728 7.255783 1,700 318 150 -832
2020-05-06 21:13:05 GMT 50.791489 7.257583 1,725 317 150 -832
2020-05-06 21:13:00 GMT 50.789188 7.261047 1,775 317 150 -896
2020-05-06 21:12:57 GMT 50.787872 7.262928 1,850 318 152 -832
2020-05-06 21:12:54 GMT 50.783978 7.268677 1,975 318 157 -832
2020-05-06 21:12:50 GMT 50.783978 7.268677 1,925 318 156 -832
2020-05-06 21:12:46 GMT 50.781418 7.272355 2,000 318 162 -896
2020-05-06 21:12:43 GMT 50.780045 7.274285 2,025 318 162 -832
2020-05-06 21:12:40 GMT 50.778156 7.276993 2,075 318 164 -896
2020-05-06 21:12:37 GMT 50.777134 7.278442 2,100 318 167 -832
2020-05-06 21:12:34 GMT 50.775364 7.280960 2,125 318 168 -832
2020-05-06 21:12:31 GMT 50.773457 7.283707 2,200 318 173 -960
2020-05-06 21:12:27 GMT 50.771080 7.287140 2,250 318 174 -1024
2020-05-06 21:12:24 GMT 50.769379 7.289577 2,325 318 176 -1152
2020-05-06 21:12:20 GMT 50.767136 7.292843 2,375 318 178 -1088
2020-05-06 21:12:17 GMT 50.765259 7.295516 2,450 318 181 -960
2020-05-06 21:12:14 GMT 50.763336 7.298262 2,450 318 181 -960
2020-05-06 21:12:09 GMT 50.760681 7.302122 2,550 318 179 -896
2020-05-06 21:12:06 GMT 50.756744 7.307892 2,625 318 181 -832
2020-05-06 21:12:03 GMT 50.756744 7.307892 2,650 318 181 -768
2020-05-06 21:12:00 GMT 50.754593 7.310882 2,675 318 181 -576
2020-05-06 21:11:57 GMT 50.752670 7.313628 2,700 318 180 -256
2020-05-06 21:11:53 GMT 50.750519 7.316746 2,725 318 179 0
2020-05-06 21:11:50 GMT 50.748459 7.319717 2,725 318 184 -640
2020-05-06 21:11:46 GMT 50.746216 7.322907 2,875 318 191 -512
2020-05-06 21:11:43 GMT 50.744362 7.325592 2,750 318 182 -640
2020-05-06 21:11:39 GMT 50.742081 7.328949 2,775 318 184 -640
2020-05-06 21:11:36 GMT 50.740215 7.331543 2,800 318 185 -640
2020-05-06 21:11:33 GMT 50.737839 7.335007 2,850 318 188 -704
2020-05-06 21:11:29 GMT 50.735237 7.338715 2,925 319 193 -512
2020-05-06 21:11:26 GMT 50.733582 7.341168 2,925 318 191 -704
2020-05-06 21:11:23 GMT 50.731323 7.344360 2,975 319 193 -640
2020-05-06 21:11:19 GMT 50.728821 7.347923 3,000 319 193 -512
2020-05-06 21:11:16 GMT 50.726212 7.351561 3,050 318 193 -640
2020-05-06 21:11:13 GMT 50.724529 7.354050 3,075 318 192 -640
2020-05-06 21:11:10 GMT 50.722992 7.356186 3,125 318 192 -448
2020-05-06 21:11:05 GMT 50.719254 7.361582 3,125 318 191 -512
2020-05-06 21:11:02 GMT 50.717640 7.363968 3,175 318 193 -576
2020-05-06 21:10:58 GMT 50.715271 7.367372 3,225 318 197 -576
2020-05-06 21:10:55 GMT 50.712845 7.370911 3,325 318 201 -640
2020-05-06 21:10:52 GMT 50.711014 7.373534 3,275 318 197 -576
2020-05-06 21:10:48 GMT 50.708607 7.377014 3,300 318 198 -576
2020-05-06 21:10:45 GMT 50.706116 7.380660 3,325 318 200 -576
2020-05-06 21:10:42 GMT 50.704140 7.383575 3,375 318 203 -640
2020-05-06 21:10:39 GMT 50.702087 7.386598 3,400 318 205 -640
2020-05-06 21:10:33 GMT 50.697807 7.392731 3,475 317 209 -576
2020-05-06 21:10:29 GMT 50.694489 7.397659 3,525 317 210 -896
2020-05-06 21:10:24 GMT 50.691879 7.401593 3,575 316 211 -1216
2020-05-06 21:10:21 GMT 50.689522 7.405243 3,675 315 212 -1280
2020-05-06 21:10:17 GMT 50.687027 7.409239 3,750 315 213 -1152
2020-05-06 21:10:14 GMT 50.685005 7.412415 3,775 315 214 -1152
2020-05-06 21:10:11 GMT 50.682350 7.416611 3,875 315 218 -1280
2020-05-06 21:10:08 GMT 50.680771 7.419052 3,925 315 220 -1344
2020-05-06 21:10:02 GMT 50.676361 7.426015 4,050 315 226 -1280
2020-05-06 21:09:59 GMT 50.673740 7.430191 4,525 315 233 -1472
2020-05-06 21:09:55 GMT 50.671272 7.434033 4,450 315 230 -1344
2020-05-06 21:09:51 GMT 50.668121 7.439045 4,400 315 232 -1344
2020-05-06 21:09:48 GMT 50.665405 7.443312 4,400 315 231 -1216
2020-05-06 21:09:45 GMT 50.663033 7.447023 4,800 315 232 -1344
2020-05-06 21:09:42 GMT 50.661171 7.449992 4,575 315 234 -1472
2020-05-06 21:09:38 GMT 50.658554 7.454151 4,600 315 235 -1344
2020-05-06 21:09:35 GMT 50.656036 7.458127 4,775 315 236 -1216
2020-05-06 21:09:32 GMT 50.653336 7.462391 4,775 315 236 -1216
2020-05-06 21:09:29 GMT 50.650650 7.466695 4,800 315 239 -1280
2020-05-06 21:09:25 GMT 50.647934 7.470992 4,925 315 243 -1344
2020-05-06 21:09:22 GMT 50.645691 7.474534 4,975 315 246 -1344
2020-05-06 21:09:18 GMT 50.642830 7.479091 5,025 315 248 -1280
2020-05-06 21:09:15 GMT 50.639992 7.483545 5,125 315 257 -1280
2020-05-06 21:09:11 GMT 50.636452 7.489113 5,225 315 255 -1536
2020-05-06 21:09:04 GMT 50.630959 7.497872 5,350 315 257 -1216
2020-05-06 21:09:01 GMT 50.628754 7.501349 5,400 315 258 -1152
2020-05-06 21:08:58 GMT 50.625561 7.506409 5,475 315 260 -1280
2020-05-06 21:08:55 GMT 50.623215 7.510167 5,525 315 263 -1344
2020-05-06 21:08:51 GMT 50.620422 7.514648 5,600 315 265 -1344
2020-05-06 21:08:48 GMT 50.616714 7.520575 5,725 315 269 -1280
2020-05-06 21:08:45 GMT 50.613781 7.525264 5,775 315 270 -1344
2020-05-06 21:08:41 GMT 50.611408 7.529049 5,825 315 272 -1344
2020-05-06 21:08:38 GMT 50.608200 7.534091 5,925 316 275 -1408
2020-05-06 21:08:34 GMT 50.605408 7.538428 6,025 316 282 -1344
2020-05-06 21:08:31 GMT 50.602608 7.542708 6,050 316 284 -1408
2020-05-06 21:08:27 GMT 50.598606 7.548869 6,125 316 287 -1408
2020-05-06 21:08:24 GMT 50.595253 7.554066 6,200 315 292 -1408
2020-05-06 21:08:21 GMT 50.592957 7.557654 6,275 315 298 -1344
2020-05-06 21:08:18 GMT 50.589481 7.563196 6,400 315 303 -1280
2020-05-06 21:08:15 GMT 50.586548 7.567845 6,625 315 323 -1280
2020-05-06 21:08:12 GMT 50.583435 7.572760 6,500 315 313 -1600
2020-05-06 21:08:09 GMT 50.580822 7.576929 6,550 315 315 -1536
2020-05-06 21:08:06 GMT 50.577518 7.582125 6,650 315 316 -1344
2020-05-06 21:08:03 GMT 50.574722 7.586505 6,725 315 318 -1344
2020-05-06 21:08:00 GMT 50.571465 7.591553 6,775 315 321 -1344
2020-05-06 21:07:57 GMT 50.568439 7.596304 6,850 315 321 -1344
2020-05-06 21:07:53 GMT 50.562653 7.605430 6,950 315 323 -1280
2020-05-06 21:07:50 GMT 50.561600 7.607093 7,025 315 325 -1344
2020-05-06 21:07:47 GMT 50.558430 7.612041 7,050 315 326 -1344
2020-05-06 21:07:42 GMT 50.552471 7.621468 7,150 315 328 -1344
2020-05-06 21:07:39 GMT 50.549446 7.626219 7,325 316 331 -1344
2020-05-06 21:07:36 GMT 50.546860 7.630294 7,325 316 334 -1216
2020-05-06 21:07:33 GMT 50.542698 7.636760 7,400 315 337 -1280
2020-05-06 21:07:30 GMT 50.539215 7.642292 7,425 315 339 -1344
2020-05-06 21:07:26 GMT 50.534225 7.650171 7,525 315 341 -1344
2020-05-06 21:07:23 GMT 50.531204 7.654869 7,600 315 343 -1344
2020-05-06 21:07:19 GMT 50.526310 7.662593 7,700 316 344 -1344
2020-05-06 21:07:15 GMT 50.523148 7.667517 7,725 316 344 -1344
2020-05-06 21:07:11 GMT 50.517372 7.676548 7,850 315 345 -1280
2020-05-06 21:07:08 GMT 50.515228 7.679877 7,900 315 345 -1280
2020-05-06 21:07:05 GMT 50.511749 7.685370 7,975 315 345 -1280
2020-05-06 21:07:01 GMT 50.507458 7.692137 8,100 315 345 -1280
2020-05-06 21:06:58 GMT 50.503777 7.698001 8,125 315 345 -1280
2020-05-06 21:06:55 GMT 50.500519 7.703123 8,250 315 345 -1280
2020-05-06 21:06:51 GMT 50.496231 7.709873 8,250 315 344 -1280
2020-05-06 21:06:48 GMT 50.492294 7.716089 8,300 315 344 -1280
2020-05-06 21:06:45 GMT 50.488930 7.721384 8,750 315 342 -1408
2020-05-06 21:06:41 GMT 50.483715 7.729698 8,525 315 342 -1408
2020-05-06 21:06:38 GMT 50.481384 7.733410 8,600 315 341 -1408
2020-05-06 21:06:35 GMT 50.478058 7.738712 8,625 315 341 -1280
2020-05-06 21:06:30 GMT 50.472153 7.748036 8,750 316 343 -1792
2020-05-06 21:06:24 GMT 50.465744 7.758055 8,975 316 345 -2496
2020-05-06 21:06:21 GMT 50.462082 7.763648 9,075 316 345 -2432
2020-05-06 21:06:18 GMT 50.458714 7.768893 9,250 316 346 -2432
2020-05-06 21:06:15 GMT 50.455177 7.774386 9,325 316 347 -2368
2020-05-06 21:06:12 GMT 50.451874 7.779477 9,450 316 347 -2368
2020-05-06 21:06:09 GMT 50.447170 7.786783 9,750 316 350 -2240
2020-05-06 21:06:06 GMT 50.444889 7.790346 9,700 316 350 -2240
2020-05-06 21:06:03 GMT 50.442001 7.794800 9,775 316 351 -2176
2020-05-06 21:06:00 GMT 50.436951 7.802678 9,950 315 352 -2240
2020-05-06 21:05:57 GMT 50.434891 7.805931 10,075 315 354 -2304
2020-05-06 21:05:54 GMT 50.430588 7.812653 10,150 315 354 -2304
2020-05-06 21:05:51 GMT 50.427570 7.817366 10,225 316 355 -2304
2020-05-06 21:05:48 GMT 50.424175 7.822637 10,400 316 356 -2432
2020-05-06 21:05:45 GMT 50.420589 7.828204 10,575 316 357 -2496
2020-05-06 21:05:41 GMT 50.415436 7.836215 10,700 316 357 -2560
2020-05-06 21:05:38 GMT 50.412506 7.840769 10,800 316 357 -2624
2020-05-06 21:05:35 GMT 50.408386 7.847202 11,000 316 357 -2688
2020-05-06 21:05:31 GMT 50.403809 7.854285 11,075 316 357 -2688
2020-05-06 21:05:28 GMT 50.396988 7.864838 11,350 316 358 -2752
2020-05-06 21:05:25 GMT 50.393372 7.870548 11,425 316 357 -2752
2020-05-06 21:05:22 GMT 50.393372 7.870548 11,525 316 357 -2752
2020-05-06 21:05:19 GMT 50.390053 7.875638 11,625 316 357 -2880
2020-05-06 21:05:16 GMT 50.386791 7.880686 11,725 316 357 -2816
2020-05-06 21:05:13 GMT 50.382694 7.887070 12,025 315 357 -2880
2020-05-06 21:05:10 GMT 50.379765 7.891672 12,175 315 357 -3072
2020-05-06 21:05:07 GMT 50.375668 7.898056 12,500 315 358 -3520
2020-05-06 21:05:04 GMT 50.371719 7.904229 12,475 315 358 -3520
2020-05-06 21:05:00 GMT 50.364807 7.915071 12,675 315 359 -3520
2020-05-06 21:04:57 GMT 50.364807 7.915071 12,825 315 360 -3584
2020-05-06 21:04:54 GMT 50.361145 7.920781 13,275 316 361 -3648
2020-05-06 21:04:50 GMT 50.355469 7.929599 13,300 316 363 -3840
2020-05-06 21:04:47 GMT 50.352345 7.934430 13,400 316 363 -3904
2020-05-06 21:04:44 GMT 50.349243 7.939212 13,550 316 364 -3904
2020-05-06 21:04:41 GMT 50.345627 7.944705 13,800 316 364 -3840
2020-05-06 21:04:38 GMT 50.341919 7.950488 14,050 316 367 -3648
2020-05-06 21:04:35 GMT 50.337818 7.956774 14,300 316 368 -3520
2020-05-06 21:04:32 GMT 50.334282 7.962193 14,400 316 369 -3264
2020-05-06 21:04:29 GMT 50.330887 7.967401 14,525 316 371 -3072
2020-05-06 21:04:26 GMT 50.327717 7.972363 17,950 316 372 -2688
2020-05-06 21:04:23 GMT 50.323200 7.979340 14,900 316 374 -2560
2020-05-06 21:04:20 GMT 50.319386 7.985279 14,950 316 374 -2560
2020-05-06 21:04:17 GMT 50.316238 7.990241 15,150 316 375 -2496
2020-05-06 21:04:14 GMT 50.312439 7.996168 15,200 316 375 -2496
2020-05-06 21:04:10 GMT 50.307003 8.004579 15,375 316 376 -2496
2020-05-06 21:04:07 GMT 50.303928 8.009330 15,475 316 376 -2560
2020-05-06 21:04:04 GMT 50.299366 8.016456 15,650 316 376 -2496
2020-05-06 21:04:01 GMT 50.296417 8.021031 16,250 316 383 -2624
2020-05-06 21:03:58 GMT 50.292343 8.027320 15,900 316 378 -2944
2020-05-06 21:03:55 GMT 50.289001 8.032524 16,100 316 377 -2880
2020-05-06 21:03:52 GMT 50.284424 8.039607 16,200 315 380 -2880
2020-05-06 21:03:49 GMT 50.281311 8.044450 16,375 315 381 -2880
2020-05-06 21:03:46 GMT 50.277439 8.050529 16,525 316 385 -2560
2020-05-06 21:03:43 GMT 50.274673 8.054785 16,550 316 385 -2560
2020-05-06 21:03:40 GMT 50.270279 8.061652 16,725 316 386 -2496
2020-05-06 21:03:37 GMT 50.266457 8.067528 16,800 316 386 -2560
2020-05-06 21:03:34 GMT 50.261242 8.075545 17,025 316 386 -2688
2020-05-06 21:03:31 GMT 50.259239 8.078663 17,175 316 386 -2752
2020-05-06 21:03:28 GMT 50.255905 8.083769 17,275 316 387 -2752
2020-05-06 21:03:25 GMT 50.251190 8.091069 17,350 316 388 -2752
2020-05-06 21:03:22 GMT 50.247368 8.096924 17,675 316 387 -2816
2020-05-06 21:03:18 GMT 50.241642 8.105757 17,750 316 388 -2880
2020-05-06 21:03:15 GMT 50.237549 8.112030 17,925 316 388 -2944
2020-05-06 21:03:12 GMT 50.234894 8.116150 18,050 316 387 -3072
2020-05-06 21:03:09 GMT 50.230515 8.122831 18,175 316 387 -3200
2020-05-06 21:03:06 GMT 50.227070 8.128101 18,325 316 386 -3392
2020-05-06 21:03:03 GMT 50.223221 8.133858 20,000 316 385 -3520
2020-05-06 21:03:00 GMT 50.214294 8.147446 18,800 316 383 -3840
2020-05-06 21:02:57 GMT 50.214294 8.147446 18,975 316 383 -3904
2020-05-06 21:02:54 GMT 50.211803 8.151336 19,150 316 382 -3904
2020-05-06 21:02:51 GMT 50.207378 8.158091 19,250 316 382 -3776
2020-05-06 21:02:48 GMT 50.200722 8.168335 19,550 316 382 -3264
2020-05-06 21:02:45 GMT 50.200722 8.168335 19,575 316 383 -3072
2020-05-06 21:02:42 GMT 50.196487 8.174912 19,650 316 383 -2944
2020-05-06 21:02:39 GMT 50.191406 8.182718 19,925 316 384 -2624
2020-05-06 21:02:36 GMT 50.188889 8.186621 20,025 316 385 -2624
2020-05-06 21:02:33 GMT 50.185081 8.192460 20,175 316 385 -2560
2020-05-06 21:02:29 GMT 50.179733 8.200571 20,275 316 385 -2560
2020-05-06 21:02:26 GMT 50.176422 8.205599 20,725 316 388 -2368
2020-05-06 21:02:23 GMT 50.172318 8.211847 20,575 316 387 -2432
2020-05-06 21:02:20 GMT 50.168510 8.217699 20,750 316 391 -2432
2020-05-06 21:02:17 GMT 50.163761 8.224900 21,225 316 391 -2368
2020-05-06 21:02:14 GMT 50.156845 8.235554 21,200 316 391 -2368
2020-05-06 21:02:11 GMT 50.156845 8.235554 21,075 316 390 -2368
2020-05-06 21:02:08 GMT 50.153366 8.240830 21,150 316 391 -2368
2020-05-06 21:02:05 GMT 50.149658 8.246540 21,250 316 391 -2432
2020-05-06 21:02:02 GMT 50.146301 8.251697 21,500 316 393 -2432
2020-05-06 21:01:59 GMT 50.141922 8.258394 21,475 316 393 -2432
2020-05-06 21:01:56 GMT 50.134434 8.269884 21,725 316 393 -2432
2020-05-06 21:01:53 GMT 50.129517 8.277475 21,800 316 394 -2432
2020-05-06 21:01:50 GMT 50.129517 8.277475 21,900 316 394 -2432
2020-05-06 21:01:47 GMT 50.126266 8.282463 21,975 316 395 -2368
2020-05-06 21:01:44 GMT 50.121819 8.289259 22,150 316 396 -2432
2020-05-06 21:01:41 GMT 50.118557 8.294232 22,300 316 397 -2432
2020-05-06 21:01:38 GMT 50.114136 8.301038 22,400 316 397 -2432
2020-05-06 21:01:35 GMT 50.109386 8.308262 22,550 316 398 -2432
2020-05-06 21:01:31 GMT 50.105057 8.314869 22,625 316 399 -2432
2020-05-06 21:01:28 GMT 50.100357 8.322144 22,825 316 400 -2496
2020-05-06 21:01:25 GMT 50.096912 8.327414 22,900 316 400 -2496
2020-05-06 21:01:22 GMT 50.093491 8.332624 23,000 316 401 -2496
2020-05-06 21:01:19 GMT 50.089554 8.338695 23,200 316 403 -2496
2020-05-06 21:01:16 GMT 50.084930 8.345851 23,275 316 403 -2496
2020-05-06 21:01:13 GMT 50.080944 8.351911 23,350 316 403 -2496
2020-05-06 21:01:10 GMT 50.077873 8.356661 23,450 316 404 -2432
2020-05-06 21:01:07 GMT 50.073395 8.363559 23,600 316 405 -2368
2020-05-06 21:01:04 GMT 50.065254 8.376110 23,825 316 406 -2176
2020-05-06 21:01:01 GMT 50.065254 8.376110 23,925 316 408 -2112
2020-05-06 21:00:58 GMT 50.061539 8.381846 23,950 316 408 -2048
2020-05-06 21:00:55 GMT 50.057484 8.387987 24,025 316 409 -1920
2020-05-06 21:00:52 GMT 50.053200 8.394594 24,150 316 412 -1792
2020-05-06 21:00:48 GMT 50.046402 8.404986 24,300 316 414 -1600
2020-05-06 21:00:45 GMT 50.043934 8.408698 24,375 316 415 -1600
2020-05-06 21:00:42 GMT 50.039291 8.415816 24,425 316 416 -1600
2020-05-06 21:00:39 GMT 50.036579 8.419981 24,475 316 417 -1600
2020-05-06 21:00:36 GMT 50.030777 8.428827 24,600 316 419 -1664
2020-05-06 21:00:33 GMT 50.028030 8.433019 24,700 316 421 -1728
2020-05-06 21:00:30 GMT 50.021622 8.442632 24,775 316 422 -1664
2020-05-06 21:00:27 GMT 50.018097 8.447908 24,875 316 423 -1408
2020-05-06 21:00:24 GMT 50.013474 8.454919 24,925 316 425 -1088
2020-05-06 21:00:21 GMT 50.010838 8.458953 24,950 316 425 -960
2020-05-06 21:00:18 GMT 50.006607 8.465327 25,000 316 425 -640
2020-05-06 21:00:15 GMT 50.001389 8.473133 25,050 316 426 -384
2020-05-06 21:00:12 GMT 49.997543 8.478916 25,050 317 426 -320
2020-05-06 21:00:09 GMT 49.993149 8.485493 25,050 317 426 -384
2020-05-06 21:00:06 GMT 49.990311 8.489757 25,075 316 427 -448
2020-05-06 21:00:03 GMT 49.984634 8.498214 25,175 317 430 -2112
2020-05-06 21:00:00 GMT 49.980240 8.504864 25,175 316 428 -1024
2020-05-06 20:59:57 GMT 49.976433 8.510618 25,200 316 428 -1088
2020-05-06 20:59:54 GMT 49.970352 8.519825 25,550 321 431 -2240
2020-05-06 20:59:51 GMT 49.968521 8.522644 25,400 317 430 -2112
2020-05-06 20:59:48 GMT 49.963394 8.530450 25,450 317 430 -2112
2020-05-06 20:59:45 GMT 49.960003 8.535560 25,725 318 430 -2368
2020-05-06 20:59:42 GMT 49.955952 8.541499 25,650 318 431 -2368
2020-05-06 20:59:39 GMT 49.951996 8.547141 26,225 323 432 -2112
2020-05-06 20:59:36 GMT 49.946457 8.554736 25,850 319 431 -2304
2020-05-06 20:59:33 GMT 49.941940 8.560799 26,100 321 432 -2240
2020-05-06 20:59:30 GMT 49.938309 8.565550 26,225 323 432 -2112
2020-05-06 20:59:27 GMT 49.932583 8.572825 26,250 322 432 -2176
2020-05-06 20:59:24 GMT 49.927040 8.579506 26,350 324 432 -2112
2020-05-06 20:59:21 GMT 49.923084 8.584182 26,425 324 433 -2112
2020-05-06 20:59:18 GMT 49.917892 8.590008 26,575 325 433 -1984
2020-05-06 20:59:15 GMT 49.912491 8.595934 26,750 327 433 -1920
2020-05-06 20:59:12 GMT 49.908234 8.600513 27,000 329 434 -1728
2020-05-06 20:59:09 GMT 49.903393 8.605487 26,800 328 434 -1856
2020-05-06 20:59:06 GMT 49.896782 8.612019 26,950 329 434 -1728
2020-05-06 20:59:03 GMT 49.892349 8.616172 27,000 330 434 -1664
2020-05-06 20:59:00 GMT 49.887707 8.620482 27,100 331 434 -1600
2020-05-06 20:58:57 GMT 49.883514 8.624123 27,150 332 434 -1600
2020-05-06 20:58:54 GMT 49.878582 8.628350 27,275 333 435 -1472
2020-05-06 20:58:51 GMT 49.871475 8.634097 27,400 334 435 -1344
2020-05-06 20:58:48 GMT 49.866802 8.637778 27,400 334 435 -1344
2020-05-06 20:58:45 GMT 49.861404 8.641904 27,500 334 436 -1280
2020-05-06 20:58:42 GMT 49.854187 8.647502 27,550 334 436 -1216
2020-05-06 20:58:39 GMT 49.851471 8.649565 27,625 334 437 -1024
2020-05-06 20:58:36 GMT 49.845345 8.654257 27,650 334 437 -1088
2020-05-06 20:58:33 GMT 49.838791 8.659250 27,725 334 437 -1088
2020-05-06 20:58:30 GMT 49.833572 8.663298 27,750 334 437 -960
2020-05-06 20:58:27 GMT 49.828308 8.667346 27,875 334 438 -768
2020-05-06 20:58:24 GMT 49.823605 8.670959 27,875 334 438 -768
2020-05-06 20:58:21 GMT 49.818295 8.674968 27,875 334 439 -768
2020-05-06 20:58:18 GMT 49.812664 8.679348 27,925 334 440 -640
2020-05-06 20:58:15 GMT 49.807030 8.683653 27,950 334 440 -640
2020-05-06 20:58:12 GMT 49.794323 8.693452 28,000 334 440 -320
2020-05-06 20:58:08 GMT 49.794323 8.693452 28,000 334 440 -192
2020-05-06 20:58:05 GMT 49.788269 8.698054 28,000 334 440 0
2020-05-06 20:58:02 GMT 49.782486 8.702545 28,000 334 440 0
2020-05-06 20:57:59 GMT 49.776810 8.706882 28,000 334 440 0
2020-05-06 20:57:56 GMT 49.773003 8.709783 28,000 334 440 0
2020-05-06 20:57:53 GMT 49.767517 8.714037 28,000 334 440 0
2020-05-06 20:57:50 GMT 49.760616 8.719359 28,000 334 440 0
2020-05-06 20:57:47 GMT 49.756622 8.722422 28,000 334 440 0
2020-05-06 20:57:44 GMT 49.750259 8.727337 28,000 334 440 0
2020-05-06 20:57:41 GMT 49.745861 8.730642 28,000 334 440 0
2020-05-06 20:57:38 GMT 49.738785 8.736135 28,000 334 440 0
2020-05-06 20:57:35 GMT 49.733479 8.740144 28,000 334 440 0
2020-05-06 20:57:32 GMT 49.728916 8.743633 28,000 334 440 0
2020-05-06 20:57:29 GMT 49.723114 8.748153 28,000 334 440 0
2020-05-06 20:57:26 GMT 49.717850 8.752200 28,000 334 440 0
2020-05-06 20:57:23 GMT 49.712391 8.756400 28,000 334 440 0
2020-05-06 20:57:20 GMT 49.707092 8.760440 28,000 334 440 0
2020-05-06 20:57:17 GMT 49.701462 8.764705 28,000 334 440 0
2020-05-06 20:57:14 GMT 49.695629 8.769168 28,000 334 440 0
2020-05-06 20:57:11 GMT 49.689423 8.773956 28,000 334 440 0
2020-05-06 20:57:08 GMT 49.684692 8.777557 28,000 334 440 0
2020-05-06 20:57:05 GMT 49.679947 8.781184 28,000 334 440 0
2020-05-06 20:57:02 GMT 49.673378 8.786167 28,000 334 440 0
2020-05-06 20:56:59 GMT 49.669006 8.789496 28,000 334 440 0
2020-05-06 20:56:56 GMT 49.662277 8.794628 28,000 334 440 0
2020-05-06 20:56:53 GMT 49.658615 8.797447 28,000 334 440 0
2020-05-06 20:56:50 GMT 49.646984 8.806359 28,000 334 440 0
2020-05-06 20:56:47 GMT 49.646984 8.806359 28,000 334 440 0
2020-05-06 20:56:44 GMT 49.641678 8.810385 28,000 334 439 0
2020-05-06 20:56:41 GMT 49.636230 8.814524 28,000 334 440 0
2020-05-06 20:56:38 GMT 49.629108 8.819943 28,000 334 440 0
2020-05-06 20:56:35 GMT 49.625473 8.822672 28,000 334 440 0
2020-05-06 20:56:32 GMT 49.619659 8.827143 28,000 334 440 0
2020-05-06 20:56:29 GMT 49.613979 8.831449 28,000 334 440 0
2020-05-06 20:56:26 GMT 49.602898 8.839911 28,000 334 440 0
2020-05-06 20:56:23 GMT 49.602898 8.839911 28,000 334 440 0
2020-05-06 20:56:20 GMT 49.597591 8.843920 28,000 334 440 0
2020-05-06 20:56:17 GMT 49.591415 8.848620 28,000 334 440 0
2020-05-06 20:56:14 GMT 49.586700 8.852234 28,000 334 440 0
2020-05-06 20:56:11 GMT 49.580322 8.857133 28,000 334 440 0
2020-05-06 20:56:08 GMT 49.576309 8.860185 28,000 334 439 0
2020-05-06 20:56:05 GMT 49.570499 8.864631 28,000 334 439 0
2020-05-06 20:56:02 GMT 49.565239 8.868639 28,000 334 439 0
2020-05-06 20:55:59 GMT 49.558685 8.873628 28,000 334 439 0
2020-05-06 20:55:56 GMT 49.553375 8.877604 28,000 334 439 0
2020-05-06 20:55:53 GMT 49.547920 8.881778 28,000 334 439 0
2020-05-06 20:55:50 GMT 49.543545 8.885044 28,000 334 439 0
2020-05-06 20:55:47 GMT 49.538086 8.889240 28,000 334 439 0
2020-05-06 20:55:44 GMT 49.531723 8.894011 28,000 334 438 0
2020-05-06 20:55:41 GMT 49.526093 8.898275 28,000 334 438 0
2020-05-06 20:55:38 GMT 49.521713 8.901598 28,000 334 438 0
2020-05-06 20:55:35 GMT 49.515381 8.906423 28,000 334 438 0
2020-05-06 20:55:32 GMT 49.508469 8.911647 28,000 334 438 0
2020-05-06 20:55:29 GMT 49.504814 8.914440 28,000 334 438 0
2020-05-06 20:55:26 GMT 49.498306 8.919381 28,000 334 438 0
2020-05-06 20:55:23 GMT 49.494850 8.922012 28,000 334 438 0
2020-05-06 20:55:20 GMT 49.488327 8.926970 28,000 334 438 0
2020-05-06 20:55:17 GMT 49.483398 8.930623 28,000 334 438 0
2020-05-06 20:55:14 GMT 49.477257 8.935299 28,000 334 438 0
2020-05-06 20:55:11 GMT 49.471992 8.939308 28,000 334 437 0
2020-05-06 20:55:08 GMT 49.465805 8.943955 28,000 334 437 0
2020-05-06 20:55:05 GMT 49.461845 8.947028 28,000 334 437 0
2020-05-06 20:55:02 GMT 49.454407 8.952629 28,000 334 437 0
2020-05-06 20:54:59 GMT 49.450790 8.955375 28,000 334 437 0
2020-05-06 20:54:56 GMT 49.445526 8.959351 28,000 334 437 0
2020-05-06 20:54:53 GMT 49.439896 8.963615 28,000 334 437 0
2020-05-06 20:54:50 GMT 49.434101 8.968036 28,000 334 436 0
2020-05-06 20:54:47 GMT 49.429214 8.971673 28,000 334 436 0
2020-05-06 20:54:44 GMT 49.421810 8.977276 28,000 334 436 0
2020-05-06 20:54:41 GMT 49.418198 8.980056 28,000 334 436 0
2020-05-06 20:54:38 GMT 49.412567 8.984281 28,000 334 436 0
2020-05-06 20:54:35 GMT 49.405331 8.989780 28,000 334 436 0
2020-05-06 20:54:32 GMT 49.400986 8.993014 28,000 334 436 0
2020-05-06 20:54:29 GMT 49.395035 8.997521 28,000 334 436 0
2020-05-06 20:54:26 GMT 49.390667 9.000838 28,000 334 436 0
2020-05-06 20:54:23 GMT 49.384335 9.005609 28,000 334 436 0
2020-05-06 20:54:20 GMT 49.380936 9.008155 28,000 334 436 0
2020-05-06 20:54:17 GMT 49.373535 9.013776 28,000 334 436 0
2020-05-06 20:54:11 GMT 49.363770 9.021184 28,000 334 436 0
2020-05-06 20:54:08 GMT 49.358315 9.025269 28,000 334 436 0
2020-05-06 20:54:05 GMT 49.352875 9.029283 28,000 334 436 0
2020-05-06 20:54:02 GMT 49.347290 9.033508 28,000 334 436 0
2020-05-06 20:53:59 GMT 49.342209 9.037339 28,000 334 436 0
2020-05-06 20:53:56 GMT 49.330662 9.046085 28,000 334 436 0
2020-05-06 20:53:53 GMT 49.330662 9.046085 28,000 334 436 0
2020-05-06 20:53:50 GMT 49.325775 9.049699 28,000 334 436 0
2020-05-06 20:53:47 GMT 49.320141 9.053963 28,000 334 436 0
2020-05-06 20:53:44 GMT 49.314697 9.058016 28,000 334 436 0
2020-05-06 20:53:41 GMT 49.308548 9.062637 28,000 334 436 0
2020-05-06 20:53:38 GMT 49.304592 9.065600 28,000 334 436 0
2020-05-06 20:53:35 GMT 49.298962 9.069864 28,000 334 436 0
2020-05-06 20:53:32 GMT 49.293182 9.074214 28,000 334 436 0
2020-05-06 20:53:29 GMT 49.287552 9.078369 28,000 334 436 0
2020-05-06 20:53:26 GMT 49.282288 9.082313 28,000 334 436 0
2020-05-06 20:53:23 GMT 49.276703 9.086538 28,000 334 436 0
2020-05-06 20:53:20 GMT 49.271259 9.090608 28,000 334 436 0
2020-05-06 20:53:17 GMT 49.265629 9.094800 28,000 334 436 0
2020-05-06 20:53:14 GMT 49.260040 9.098993 28,000 334 436 0
2020-05-06 20:53:11 GMT 49.254780 9.102968 28,000 334 436 0
2020-05-06 20:53:08 GMT 49.250778 9.105931 28,000 334 436 0
2020-05-06 20:53:05 GMT 49.243378 9.111497 28,000 334 436 0
2020-05-06 20:53:02 GMT 49.238663 9.115061 28,000 334 436 0
2020-05-06 20:52:59 GMT 49.231979 9.120061 28,000 334 436 0
2020-05-06 20:52:56 GMT 49.228500 9.122667 28,000 334 436 0
2020-05-06 20:52:52 GMT 49.220192 9.128916 28,000 334 437 0
2020-05-06 20:52:49 GMT 49.215630 9.132313 28,000 334 437 0
2020-05-06 20:52:46 GMT 49.208771 9.137456 28,000 334 437 0
2020-05-06 20:52:43 GMT 49.204739 9.140480 28,000 335 438 0
2020-05-06 20:52:40 GMT 49.199661 9.144287 28,000 335 438 0
2020-05-06 20:52:37 GMT 49.192402 9.149660 28,000 335 438 0
2020-05-06 20:52:34 GMT 49.181087 9.158044 28,000 334 438 0
2020-05-06 20:52:31 GMT 49.181087 9.158044 28,000 334 439 0
2020-05-06 20:52:28 GMT 49.178574 9.159996 28,000 334 438 0
2020-05-06 20:52:25 GMT 49.171829 9.164992 28,000 334 439 0
2020-05-06 20:52:22 GMT 49.164688 9.170344 28,000 334 439 0
2020-05-06 20:52:19 GMT 49.160698 9.173295 28,000 334 439 0
2020-05-06 20:52:16 GMT 49.155952 9.176837 28,000 334 439 0
2020-05-06 20:52:13 GMT 49.143566 9.186088 28,000 334 439 0
2020-05-06 20:52:10 GMT 49.143566 9.186088 28,000 334 439 0
2020-05-06 20:52:07 GMT 49.139706 9.188979 28,000 334 439 0
2020-05-06 20:52:04 GMT 49.131134 9.195345 28,000 335 440 0
2020-05-06 20:52:01 GMT 49.126949 9.198520 28,000 334 440 0
2020-05-06 20:51:58 GMT 49.122341 9.201917 28,000 334 440 0
2020-05-06 20:51:55 GMT 49.112473 9.209290 28,000 334 440 0
2020-05-06 20:51:52 GMT 49.112473 9.209290 28,000 334 440 0
2020-05-06 20:51:49 GMT 49.106277 9.213938 28,000 334 440 0
2020-05-06 20:51:46 GMT 49.099136 9.219220 28,000 334 440 0
2020-05-06 20:51:43 GMT 49.094036 9.223095 28,000 334 440 0
2020-05-06 20:51:40 GMT 49.089474 9.226492 28,000 334 440 0
2020-05-06 20:51:37 GMT 49.083618 9.230840 28,000 334 440 0
2020-05-06 20:51:34 GMT 49.077209 9.235629 28,000 334 440 0
2020-05-06 20:51:31 GMT 49.072449 9.239150 28,000 334 440 0
2020-05-06 20:51:28 GMT 49.067314 9.242971 28,000 334 439 0
2020-05-06 20:51:24 GMT 49.060776 9.247883 28,000 334 439 0
2020-05-06 20:51:21 GMT 49.055466 9.251756 28,000 334 439 0
2020-05-06 20:51:18 GMT 49.047958 9.257390 28,000 334 439 0
2020-05-06 20:51:15 GMT 49.043575 9.260607 28,000 334 439 0
2020-05-06 20:51:12 GMT 49.036869 9.265667 28,000 335 438 0
2020-05-06 20:51:09 GMT 49.031387 9.269714 28,000 335 438 0
2020-05-06 20:51:06 GMT 49.022114 9.276581 28,000 335 438 0
2020-05-06 20:51:03 GMT 49.022114 9.276581 28,000 335 438 0
2020-05-06 20:51:00 GMT 49.016647 9.280630 28,000 335 438 0
2020-05-06 20:50:57 GMT 49.012253 9.283870 28,000 334 437 0
2020-05-06 20:50:54 GMT 49.006100 9.288434 28,000 334 436 0
2020-05-06 20:50:51 GMT 49.000465 9.292627 28,000 334 437 0
2020-05-06 20:50:48 GMT 48.994507 9.297036 28,000 335 436 0
2020-05-06 20:50:45 GMT 48.988129 9.301734 28,000 334 435 0
2020-05-06 20:50:42 GMT 48.983616 9.305131 28,000 334 435 64
2020-05-06 20:50:39 GMT 48.972977 9.312955 28,000 335 433 64
2020-05-06 20:50:36 GMT 48.972977 9.312955 28,000 334 432 0
2020-05-06 20:50:33 GMT 48.966854 9.317490 28,000 334 430 0
2020-05-06 20:50:30 GMT 48.963642 9.319876 28,000 335 431 0
2020-05-06 20:50:27 GMT 48.956818 9.324928 28,000 335 429 0
2020-05-06 20:50:24 GMT 48.952011 9.328519 28,000 335 429 0
2020-05-06 20:50:21 GMT 48.946281 9.332741 28,000 334 428 0
2020-05-06 20:50:18 GMT 48.935440 9.340773 28,000 335 422 0
2020-05-06 20:50:15 GMT 48.935440 9.340773 28,000 335 425 0
2020-05-06 20:50:12 GMT 48.929947 9.344858 28,000 335 425 0
2020-05-06 20:50:09 GMT 48.924679 9.348787 28,000 335 425 0
2020-05-06 20:50:06 GMT 48.920929 9.351478 28,000 335 424 0
2020-05-06 20:50:03 GMT 48.915482 9.355563 28,000 335 424 0
2020-05-06 20:50:00 GMT 48.908249 9.360915 28,000 335 424 0
2020-05-06 20:49:54 GMT 48.898190 9.368302 28,000 335 424 0
2020-05-06 20:49:51 GMT 48.886879 9.376614 28,000 335 424 0
2020-05-06 20:49:48 GMT 48.886879 9.376614 28,000 335 423 0
2020-05-06 20:49:45 GMT 48.883530 9.379085 28,000 335 423 0
2020-05-06 20:49:42 GMT 48.877716 9.383381 28,000 335 423 0
2020-05-06 20:49:39 GMT 48.871750 9.387745 28,000 335 423 0
2020-05-06 20:49:36 GMT 48.868240 9.390353 28,000 335 422 0
2020-05-06 20:49:33 GMT 48.860687 9.395916 28,000 335 422 0
2020-05-06 20:49:30 GMT 48.854874 9.400142 28,000 335 421 0
2020-05-06 20:49:27 GMT 48.850334 9.403502 28,000 335 420 0
2020-05-06 20:49:24 GMT 48.845444 9.407114 28,000 335 420 0
2020-05-06 20:49:21 GMT 48.840683 9.410565 28,000 335 420 0
2020-05-06 20:49:18 GMT 48.835438 9.414416 28,000 335 420 0
2020-05-06 20:49:15 GMT 48.830040 9.418391 28,000 335 419 0
2020-05-06 20:49:12 GMT 48.824314 9.422656 28,025 335 419 0
2020-05-06 20:49:09 GMT 48.819946 9.425847 28,000 335 419 0
2020-05-06 20:49:06 GMT 48.814865 9.429580 28,000 335 418 0
2020-05-06 20:49:03 GMT 48.808765 9.434003 28,000 335 418 0
2020-05-06 20:49:00 GMT 48.803741 9.437749 28,000 335 418 0
2020-05-06 20:48:57 GMT 48.796783 9.442819 28,000 335 418 0
2020-05-06 20:48:54 GMT 48.792938 9.445636 28,000 335 418 0
2020-05-06 20:48:51 GMT 48.788589 9.448806 28,000 335 418 0
2020-05-06 20:48:48 GMT 48.783348 9.452651 28,000 335 418 0
2020-05-06 20:48:45 GMT 48.777946 9.456554 28,000 335 418 0
2020-05-06 20:48:41 GMT 48.768917 9.463204 28,000 335 418 0
2020-05-06 20:48:38 GMT 48.765610 9.465637 28,000 335 418 0
2020-05-06 20:48:35 GMT 48.760574 9.469299 28,000 335 419 0
2020-05-06 20:48:31 GMT 48.753227 9.474696 28,000 335 419 0
2020-05-06 20:48:28 GMT 48.748154 9.478382 28,000 335 420 0
2020-05-06 20:48:25 GMT 48.742382 9.482574 28,000 335 421 0
2020-05-06 20:48:22 GMT 48.736816 9.486694 28,025 335 421 -64
2020-05-06 20:48:19 GMT 48.731533 9.490597 28,025 335 423 -128
2020-05-06 20:48:16 GMT 48.725555 9.494934 28,025 335 423 -128
2020-05-06 20:48:13 GMT 48.716949 9.501272 28,050 335 431 -1920
2020-05-06 20:48:10 GMT 48.712189 9.504794 28,050 335 425 -320
2020-05-06 20:48:07 GMT 48.712189 9.504794 28,050 335 425 -320
2020-05-06 20:48:04 GMT 48.705643 9.509583 28,075 335 427 -448
2020-05-06 20:48:01 GMT 48.700516 9.513385 28,100 335 427 -640
2020-05-06 20:47:58 GMT 48.695549 9.516979 28,125 335 427 -768
2020-05-06 20:47:55 GMT 48.680981 9.527749 28,500 335 433 -1984
2020-05-06 20:47:51 GMT 48.680981 9.527749 28,300 334 430 -1664
2020-05-06 20:47:48 GMT 48.677765 9.530147 28,325 334 430 -1792
2020-05-06 20:47:45 GMT 48.672180 9.534231 28,550 335 431 -1920
2020-05-06 20:47:42 GMT 48.666080 9.538663 28,600 335 433 -1984
2020-05-06 20:47:39 GMT 48.660004 9.543175 28,675 335 433 -1984
2020-05-06 20:47:36 GMT 48.654770 9.546975 28,800 335 434 -1984
2020-05-06 20:47:33 GMT 48.649338 9.550922 28,875 335 434 -1984
2020-05-06 20:47:30 GMT 48.644806 9.554232 28,900 335 434 -1984
2020-05-06 20:47:27 GMT 48.634323 9.561838 30,000 335 432 -1984
2020-05-06 20:47:24 GMT 48.634323 9.561838 29,200 335 433 -1984
2020-05-06 20:47:21 GMT 48.627815 9.566562 29,250 335 433 -1984
2020-05-06 20:47:18 GMT 48.623154 9.570007 29,300 335 433 -1984
2020-05-06 20:47:15 GMT 48.617344 9.574151 29,475 335 433 -1920
2020-05-06 20:47:12 GMT 48.612671 9.577543 29,575 335 432 -1920
2020-05-06 20:47:09 GMT 48.608498 9.580584 29,600 335 432 -1920
2020-05-06 20:47:06 GMT 48.602005 9.585290 29,725 335 432 -1920
2020-05-06 20:47:03 GMT 48.596626 9.589185 30,200 335 429 -1920
2020-05-06 20:47:00 GMT 48.589226 9.594462 30,075 335 430 -1920
2020-05-06 20:46:57 GMT 48.585663 9.597051 30,000 335 430 -1920
2020-05-06 20:46:54 GMT 48.579712 9.601347 30,150 335 429 -1920
2020-05-06 20:46:51 GMT 48.573120 9.606135 30,225 335 428 -1920
2020-05-06 20:46:48 GMT 48.563854 9.612893 30,375 335 428 -1920
2020-05-06 20:46:45 GMT 48.563854 9.612893 30,400 335 427 -1920
2020-05-06 20:46:42 GMT 48.558517 9.616770 30,475 335 427 -1920
2020-05-06 20:46:39 GMT 48.553711 9.620291 30,525 335 427 -1856
2020-05-06 20:46:36 GMT 48.546581 9.625469 30,725 335 425 -1920
2020-05-06 20:46:33 GMT 48.543228 9.627926 30,800 335 425 -1984
2020-05-06 20:46:30 GMT 48.530521 9.637250 30,925 335 424 -1920
2020-05-06 20:46:27 GMT 48.530521 9.637250 31,050 334 423 -1920
2020-05-06 20:46:24 GMT 48.526474 9.640221 31,050 334 423 -1920
2020-05-06 20:46:21 GMT 48.522034 9.643461 31,200 335 423 -1920
2020-05-06 20:46:18 GMT 48.509945 9.652357 31,300 335 422 -1920
2020-05-06 20:46:15 GMT 48.509945 9.652357 31,375 335 422 -1920
2020-05-06 20:46:12 GMT 48.505371 9.655644 31,475 335 420 -1984
2020-05-06 20:46:09 GMT 48.499237 9.660081 31,575 335 421 -1984
2020-05-06 20:46:06 GMT 48.495003 9.663126 31,700 335 420 -1984
2020-05-06 20:46:03 GMT 48.489601 9.667029 31,750 335 420 -1984
2020-05-06 20:46:00 GMT 48.482941 9.671842 31,925 335 419 -1984
2020-05-06 20:45:57 GMT 48.479267 9.674474 31,950 335 419 -1984
2020-05-06 20:45:54 GMT 48.474892 9.677582 32,025 335 419 -1984
2020-05-06 20:45:51 GMT 48.467926 9.682617 32,150 335 418 -1984
2020-05-06 20:45:48 GMT 48.464264 9.685293 32,300 335 419 -1984
2020-05-06 20:45:45 GMT 48.456596 9.690881 32,375 335 419 -1920
2020-05-06 20:45:42 GMT 48.453094 9.693392 32,475 335 419 -1920
2020-05-06 20:45:39 GMT 48.448589 9.696736 32,550 335 419 -1920
2020-05-06 20:45:36 GMT 48.442120 9.701434 32,600 334 419 -1984
2020-05-06 20:45:33 GMT 48.437416 9.704831 32,725 334 419 -1920
2020-05-06 20:45:30 GMT 48.432903 9.708156 32,875 334 419 -1984
2020-05-06 20:45:27 GMT 48.426453 9.712900 32,925 334 419 -1920
2020-05-06 20:45:24 GMT 48.422241 9.715999 33,000 335 420 -1920
2020-05-06 20:45:21 GMT 48.416840 9.719937 33,100 335 420 -1920
2020-05-06 20:45:18 GMT 48.410557 9.724563 33,200 335 420 -1984
2020-05-06 20:45:15 GMT 48.399242 9.732803 33,475 335 419 -1920
2020-05-06 20:45:12 GMT 48.399242 9.732803 33,425 335 419 -1920
2020-05-06 20:45:09 GMT 48.395187 9.735718 33,525 335 419 -1984
2020-05-06 20:45:06 GMT 48.390839 9.738887 33,575 335 420 -1920
2020-05-06 20:45:03 GMT 48.384209 9.743644 33,725 335 419 -1920
2020-05-06 20:45:00 GMT 48.379623 9.746915 33,775 335 419 -1920
2020-05-06 20:44:57 GMT 48.376156 9.749427 33,950 335 419 -1856
2020-05-06 20:44:54 GMT 48.369312 9.754269 34,000 335 419 -1920
2020-05-06 20:44:51 GMT 48.364239 9.757811 34,075 335 419 -1984
2020-05-06 20:44:48 GMT 48.359161 9.761425 34,150 335 419 -1920
2020-05-06 20:44:45 GMT 48.353165 9.765648 34,425 335 419 -1984
2020-05-06 20:44:42 GMT 48.347076 9.770015 34,400 335 420 -1984
2020-05-06 20:44:39 GMT 48.343197 9.772773 34,475 335 419 -1984
2020-05-06 20:44:36 GMT 48.336227 9.777762 34,625 335 419 -1984
2020-05-06 20:44:33 GMT 48.333607 9.779567 34,700 336 418 -1984
2020-05-06 20:44:30 GMT 48.327785 9.783614 34,750 336 417 -1984
2020-05-06 20:44:27 GMT 48.321854 9.787762 34,875 336 419 -1920
2020-05-06 20:44:24 GMT 48.316406 9.791565 34,925 335 418 -1856
2020-05-06 20:44:21 GMT 48.311356 9.795179 35,075 335 417 -1920
2020-05-06 20:44:18 GMT 48.306278 9.798793 35,200 335 419 -1920
2020-05-06 20:44:15 GMT 48.301903 9.801901 35,375 335 418 -1920
2020-05-06 20:44:12 GMT 48.289536 9.810861 35,375 335 418 -1856
2020-05-06 20:44:08 GMT 48.289536 9.810861 35,450 335 418 -1856
2020-05-06 20:44:05 GMT 48.283283 9.815417 35,575 335 418 -1920
2020-05-06 20:43:59 GMT 48.272644 9.823045 35,775 335 416 -1920
2020-05-06 20:43:56 GMT 48.268291 9.826186 37,850 335 416 -1920
2020-05-06 20:43:53 GMT 48.262939 9.830017 35,950 335 416 -1920
2020-05-06 20:43:50 GMT 48.257034 9.834243 36,125 335 415 -1920
2020-05-06 20:43:47 GMT 48.251633 9.838116 36,175 335 415 -1920
2020-05-06 20:43:44 GMT 48.242294 9.844806 36,300 335 415 -1984
2020-05-06 20:43:41 GMT 48.242294 9.844806 36,350 335 415 -1920
2020-05-06 20:43:38 GMT 48.236938 9.848680 36,425 335 415 -1984
2020-05-06 20:43:35 GMT 48.226730 9.856004 36,625 335 415 -1984
2020-05-06 20:43:32 GMT 48.226730 9.856004 36,700 335 415 -1984
2020-05-06 20:43:29 GMT 48.221508 9.859724 36,750 335 415 -1984
2020-05-06 20:43:26 GMT 48.215828 9.863843 36,850 335 415 -1984
2020-05-06 20:43:23 GMT 48.209930 9.868117 36,950 335 417 -1984
2020-05-06 20:43:20 GMT 48.206955 9.870230 37,025 335 417 -1984
2020-05-06 20:43:17 GMT 48.198978 9.875986 37,175 335 418 -2048
2020-05-06 20:43:14 GMT 48.196381 9.877836 37,300 335 419 -2112
2020-05-06 20:43:11 GMT 48.189194 9.882977 37,350 335 419 -2048
2020-05-06 20:43:08 GMT 48.178215 9.890876 37,475 335 420 -1920
2020-05-06 20:43:05 GMT 48.178215 9.890876 37,550 335 421 -1792
2020-05-06 20:43:02 GMT 48.174683 9.893470 37,675 335 422 -1664
2020-05-06 20:42:59 GMT 48.168392 9.897959 37,725 335 423 -1536
2020-05-06 20:42:56 GMT 48.162945 9.901934 37,825 335 423 -1280
2020-05-06 20:42:53 GMT 48.157963 9.905442 37,850 335 424 -1152
2020-05-06 20:42:50 GMT 48.153217 9.908823 37,900 335 424 -960
2020-05-06 20:42:47 GMT 48.147724 9.912767 37,950 335 425 -704
2020-05-06 20:42:44 GMT 48.141533 9.917203 38,000 335 425 -448
2020-05-06 20:42:41 GMT 48.136917 9.920448 38,000 335 425 -320
2020-05-06 20:42:38 GMT 48.126450 9.927908 38,025 335 425 -64
2020-05-06 20:42:35 GMT 48.126450 9.927908 38,025 335 425 0
2020-05-06 20:42:32 GMT 48.121124 9.931709 38,000 335 425 0
2020-05-06 20:42:29 GMT 48.115833 9.935514 38,000 335 425 0
2020-05-06 20:42:26 GMT 48.108898 9.940444 38,000 335 425 0
2020-05-06 20:42:23 GMT 48.104279 9.943726 38,000 335 425 0
2020-05-06 20:42:20 GMT 48.098969 9.947502 38,000 335 425 0
2020-05-06 20:42:16 GMT 48.090977 9.953191 38,000 335 425 0
2020-05-06 20:42:13 GMT 48.081757 9.959724 38,025 335 425 0
2020-05-06 20:42:10 GMT 48.081757 9.959724 38,025 335 426 0
2020-05-06 20:42:07 GMT 48.077477 9.962769 38,025 335 426 0
2020-05-06 20:42:04 GMT 48.069855 9.968239 38,000 335 426 0
2020-05-06 20:42:01 GMT 48.065742 9.971149 38,000 335 426 0
2020-05-06 20:41:58 GMT 48.060249 9.975023 38,000 335 426 0
2020-05-06 20:41:55 GMT 48.055618 9.978333 38,000 335 426 0
2020-05-06 20:41:52 GMT 48.050289 9.982135 38,000 335 426 0
2020-05-06 20:41:49 GMT 48.046005 9.985130 38,000 335 426 0
2020-05-06 20:41:46 GMT 48.039627 9.989671 38,000 335 426 0
2020-05-06 20:41:43 GMT 48.034134 9.993615 38,000 335 426 0
2020-05-06 20:41:40 GMT 48.029156 9.997136 38,000 335 426 0
2020-05-06 20:41:37 GMT 48.022915 10.001573 38,000 335 427 64
2020-05-06 20:41:34 GMT 48.018265 10.004906 38,000 335 427 0
2020-05-06 20:41:31 GMT 48.012039 10.009300 38,000 335 427 0
2020-05-06 20:41:28 GMT 48.008114 10.012137 38,000 335 427 0
2020-05-06 20:41:25 GMT 48.002247 10.016292 38,000 335 427 0
2020-05-06 20:41:22 GMT 47.995468 10.021042 38,000 335 427 0
2020-05-06 20:41:19 GMT 47.989929 10.024956 38,000 335 427 0
2020-05-06 20:41:16 GMT 47.986176 10.027634 38,000 335 427 0
2020-05-06 20:41:13 GMT 47.980831 10.031433 38,025 335 427 -64
2020-05-06 20:41:10 GMT 47.975292 10.035306 38,025 335 427 -64
2020-05-06 20:41:07 GMT 47.970310 10.038898 38,025 335 427 0
2020-05-06 20:41:04 GMT 47.964073 10.043265 38,025 335 427 0
2020-05-06 20:41:01 GMT 47.959606 10.046434 38,025 335 427 0
2020-05-06 20:40:58 GMT 47.952484 10.051529 38,025 335 428 0
2020-05-06 20:40:55 GMT 47.947826 10.054814 38,000 335 428 0
2020-05-06 20:40:52 GMT 47.941589 10.059181 38,000 335 428 0
2020-05-06 20:40:49 GMT 47.937119 10.062350 38,000 335 428 0
2020-05-06 20:40:46 GMT 47.931580 10.066294 38,000 335 428 0
2020-05-06 20:40:43 GMT 47.927307 10.069313 38,000 335 428 0
2020-05-06 20:40:40 GMT 47.916405 10.076998 38,025 335 428 0
2020-05-06 20:40:37 GMT 47.916405 10.076998 38,025 335 428 0
2020-05-06 20:40:34 GMT 47.911240 10.080711 38,025 335 428 0
2020-05-06 20:40:31 GMT 47.906212 10.084252 38,025 335 428 0
2020-05-06 20:40:28 GMT 47.901043 10.087844 38,000 335 428 0
2020-05-06 20:40:25 GMT 47.895504 10.091787 38,025 335 428 0
2020-05-06 20:40:22 GMT 47.884098 10.099886 38,000 335 428 0
2020-05-06 20:40:19 GMT 47.884098 10.099886 38,000 335 428 0
2020-05-06 20:40:16 GMT 47.878006 10.104126 38,000 335 428 0
2020-05-06 20:40:13 GMT 47.872650 10.107971 38,000 335 428 0
2020-05-06 20:40:10 GMT 47.869583 10.110100 38,000 335 428 0
2020-05-06 20:40:07 GMT 47.862080 10.115380 38,000 335 428 0
2020-05-06 20:40:04 GMT 47.856911 10.119042 38,000 335 428 0
2020-05-06 20:40:01 GMT 47.851372 10.122915 38,025 335 428 0
2020-05-06 20:39:58 GMT 47.846531 10.126366 38,000 335 428 0
2020-05-06 20:39:55 GMT 47.841888 10.129601 38,000 335 428 0
2020-05-06 20:39:52 GMT 47.835663 10.133995 38,000 335 428 0
2020-05-06 20:39:49 GMT 47.830444 10.137703 38,000 335 428 0
2020-05-06 20:39:46 GMT 47.825272 10.141342 38,000 335 429 0
2020-05-06 20:39:43 GMT 47.819016 10.145733 38,000 335 428 0
2020-05-06 20:39:40 GMT 47.815109 10.148552 38,000 335 428 0
2020-05-06 20:39:37 GMT 47.809566 10.152494 38,000 335 428 0
2020-05-06 20:39:34 GMT 47.803841 10.156508 38,000 335 428 0
2020-05-06 20:39:31 GMT 47.792542 10.164482 38,000 335 428 0
2020-05-06 20:39:28 GMT 47.792542 10.164482 38,000 335 428 0
2020-05-06 20:39:25 GMT 47.788803 10.167072 38,000 335 428 0
2020-05-06 20:39:22 GMT 47.782009 10.171861 38,000 335 428 0
2020-05-06 20:39:19 GMT 47.776978 10.175400 38,000 335 429 0
2020-05-06 20:39:16 GMT 47.770557 10.179960 38,000 335 428 0
2020-05-06 20:39:13 GMT 47.767136 10.182335 38,000 335 429 0
2020-05-06 20:39:10 GMT 47.759811 10.187485 38,000 335 428 0
2020-05-06 20:39:07 GMT 47.754589 10.191157 38,000 335 428 0
2020-05-06 20:39:04 GMT 47.751003 10.193622 38,000 335 428 0
2020-05-06 20:39:01 GMT 47.744568 10.198128 38,000 335 429 0
2020-05-06 20:38:57 GMT 47.736649 10.203621 38,000 335 429 0
2020-05-06 20:38:54 GMT 47.731659 10.207191 38,000 335 429 0
2020-05-06 20:38:51 GMT 47.726612 10.210665 38,000 335 430 0
2020-05-06 20:38:48 GMT 47.716415 10.217834 38,000 335 429 0
2020-05-06 20:38:45 GMT 47.716415 10.217834 38,000 335 429 -64
2020-05-06 20:38:42 GMT 47.711018 10.221581 38,025 335 429 -64
2020-05-06 20:38:39 GMT 47.704559 10.226143 38,025 335 429 0
2020-05-06 20:38:36 GMT 47.699890 10.229398 38,025 335 429 0
2020-05-06 20:38:33 GMT 47.693985 10.233559 38,025 335 429 0
2020-05-06 20:38:30 GMT 47.684647 10.240082 38,025 335 429 0
2020-05-06 20:38:27 GMT 47.684647 10.240082 38,025 335 429 0
2020-05-06 20:38:24 GMT 47.677643 10.244957 38,000 335 429 0
2020-05-06 20:38:21 GMT 47.672058 10.248802 38,000 335 429 0
2020-05-06 20:38:18 GMT 47.667572 10.251961 38,025 335 429 0
2020-05-06 20:38:15 GMT 47.662399 10.255600 38,000 335 429 0
2020-05-06 20:38:12 GMT 47.657528 10.258977 38,000 335 429 0
2020-05-06 20:38:09 GMT 47.652176 10.262709 38,025 335 428 0
2020-05-06 20:38:06 GMT 47.647293 10.266106 38,000 335 428 0
2020-05-06 20:38:03 GMT 47.633514 10.275719 38,025 335 429 0
2020-05-06 20:38:00 GMT 47.633514 10.275719 38,000 335 429 0
2020-05-06 20:37:57 GMT 47.629364 10.278625 38,025 335 429 0
2020-05-06 20:37:54 GMT 47.623993 10.282379 38,000 335 429 0
2020-05-06 20:37:51 GMT 47.618980 10.285879 38,000 335 429 0
2020-05-06 20:37:48 GMT 47.613815 10.289541 38,000 335 426 0
2020-05-06 20:37:45 GMT 47.609482 10.292542 38,000 335 429 0
2020-05-06 20:37:42 GMT 47.603577 10.296661 38,025 335 428 0
2020-05-06 20:37:39 GMT 47.597855 10.300644 38,025 335 428 0
2020-05-06 20:37:36 GMT 47.592682 10.304283 38,025 335 428 0
2020-05-06 20:37:33 GMT 47.587143 10.308197 38,000 335 428 0
2020-05-06 20:37:29 GMT 47.579086 10.313768 38,025 335 428 0
2020-05-06 20:37:26 GMT 47.572998 10.318016 38,000 335 428 0
2020-05-06 20:37:23 GMT 47.569405 10.320528 38,000 335 428 0
2020-05-06 20:37:20 GMT 47.563122 10.324824 38,000 335 427 0
2020-05-06 20:37:17 GMT 47.559357 10.327492 38,000 335 427 0
2020-05-06 20:37:14 GMT 47.553295 10.331656 38,000 335 427 0
2020-05-06 20:37:11 GMT 47.548130 10.335247 38,000 335 427 0
2020-05-06 20:37:08 GMT 47.542740 10.338959 38,000 335 427 0
2020-05-06 20:37:05 GMT 47.538254 10.342049 38,000 335 427 0
2020-05-06 20:37:02 GMT 47.530930 10.347130 38,000 335 427 0
2020-05-06 20:36:59 GMT 47.526123 10.350494 38,000 335 426 0
2020-05-06 20:36:56 GMT 47.520950 10.354065 38,000 335 427 0
2020-05-06 20:36:53 GMT 47.515915 10.357567 38,000 335 427 0
2020-05-06 20:36:50 GMT 47.510376 10.361375 38,000 335 427 0
2020-05-06 20:36:47 GMT 47.505203 10.364983 38,000 335 426 0
2020-05-06 20:36:44 GMT 47.499664 10.368828 38,000 335 426 0
2020-05-06 20:36:41 GMT 47.493992 10.372854 38,000 335 426 0
2020-05-06 20:36:38 GMT 47.487751 10.377150 38,000 335 426 0
2020-05-06 20:36:35 GMT 47.481838 10.381235 38,000 335 426 0
2020-05-06 20:36:32 GMT 47.477043 10.384615 38,000 335 426 0
2020-05-06 20:36:29 GMT 47.467037 10.391517 38,025 335 426 0
2020-05-06 20:36:26 GMT 47.467037 10.391517 38,025 335 426 0
2020-05-06 20:36:23 GMT 47.462753 10.394475 38,025 335 425 0
2020-05-06 20:36:20 GMT 47.455631 10.399405 38,025 335 425 0
2020-05-06 20:36:17 GMT 47.451187 10.402473 38,025 335 425 0
2020-05-06 20:36:14 GMT 47.444412 10.407143 38,025 335 425 0
2020-05-06 20:36:11 GMT 47.440475 10.409821 38,025 335 425 0
2020-05-06 20:36:08 GMT 47.433380 10.414757 38,025 335 425 0
2020-05-06 20:36:05 GMT 47.429443 10.417442 38,025 335 425 0
2020-05-06 20:36:02 GMT 47.424812 10.420603 38,025 335 425 0
2020-05-06 20:35:59 GMT 47.419144 10.424515 38,025 335 424 0
2020-05-06 20:35:56 GMT 47.414017 10.428085 38,025 335 424 0
2020-05-06 20:35:53 GMT 47.409218 10.431448 38,000 335 424 0
2020-05-06 20:35:50 GMT 47.403534 10.435364 38,000 335 424 0
2020-05-06 20:35:47 GMT 47.396790 10.440040 38,000 335 424 0
2020-05-06 20:35:44 GMT 47.393234 10.442505 38,000 335 424 0
2020-05-06 20:35:41 GMT 47.386871 10.446942 38,000 335 424 0
2020-05-06 20:35:38 GMT 47.380310 10.451449 38,000 335 423 0
2020-05-06 20:35:35 GMT 47.371094 10.457858 38,000 335 422 0
2020-05-06 20:35:32 GMT 47.371094 10.457858 38,000 335 423 0
2020-05-06 20:35:29 GMT 47.365086 10.462013 38,000 335 423 0
2020-05-06 20:35:26 GMT 47.361008 10.464890 38,000 336 416 0
2020-05-06 20:35:23 GMT 47.355541 10.468633 38,025 335 421 0
2020-05-06 20:35:20 GMT 47.349884 10.472580 38,000 335 422 0
2020-05-06 20:35:17 GMT 47.343338 10.477043 38,000 335 422 0
2020-05-06 20:35:14 GMT 47.336105 10.482056 38,025 335 421 0
2020-05-06 20:35:11 GMT 47.334316 10.483281 38,025 335 421 0
2020-05-06 20:35:08 GMT 47.329006 10.486873 38,025 335 421 0
2020-05-06 20:35:05 GMT 47.317886 10.494553 38,000 335 421 0
2020-05-06 20:35:02 GMT 47.317886 10.494553 38,000 335 421 0
2020-05-06 20:34:59 GMT 47.314178 10.497093 38,000 335 421 0
2020-05-06 20:34:56 GMT 47.301498 10.505882 38,000 335 420 0
2020-05-06 20:34:53 GMT 47.301498 10.505882 38,000 335 420 0
2020-05-06 20:34:50 GMT 47.297104 10.508904 38,000 335 420 0
2020-05-06 20:34:47 GMT 47.292023 10.512405 38,000 335 420 0
2020-05-06 20:34:44 GMT 47.285522 10.516937 38,000 335 420 0
2020-05-06 20:34:41 GMT 47.281448 10.519684 38,000 335 420 0
2020-05-06 20:34:38 GMT 47.276001 10.523460 38,000 335 420 0
2020-05-06 20:34:35 GMT 47.271282 10.526733 38,000 335 420 0
2020-05-06 20:34:31 GMT 47.263367 10.532249 38,000 335 419 0
2020-05-06 20:34:28 GMT 47.258434 10.535607 38,000 336 419 0
2020-05-06 20:34:25 GMT 47.253361 10.539128 38,000 336 419 0
2020-05-06 20:34:22 GMT 47.241257 10.547424 38,000 336 419 0
2020-05-06 20:34:19 GMT 47.241257 10.547424 38,000 336 418 0
2020-05-06 20:34:16 GMT 47.238464 10.549278 38,025 336 418 0
2020-05-06 20:34:13 GMT 47.232285 10.553467 38,025 336 418 0
2020-05-06 20:34:10 GMT 47.226688 10.557298 38,000 336 418 0
2020-05-06 20:34:07 GMT 47.222450 10.560185 38,000 336 417 0
2020-05-06 20:34:04 GMT 47.215622 10.564796 38,000 336 417 0
2020-05-06 20:34:01 GMT 47.209167 10.569191 38,000 335 418 0
2020-05-06 20:33:58 GMT 47.205505 10.571732 38,000 335 417 0
2020-05-06 20:33:53 GMT 47.197777 10.577017 38,000 335 417 0
2020-05-06 20:33:50 GMT 47.191677 10.581242 38,000 335 417 0
2020-05-06 20:33:47 GMT 47.188004 10.583778 38,000 335 417 0
2020-05-06 20:33:43 GMT 47.179111 10.589905 38,000 335 417 0
2020-05-06 20:33:40 GMT 47.173874 10.593498 38,000 335 417 0
2020-05-06 20:33:36 GMT 47.166687 10.598442 38,000 335 417 0
2020-05-06 20:33:33 GMT 47.163025 10.600983 38,000 335 417 0
2020-05-06 20:33:30 GMT 47.152714 10.608074 38,000 335 417 0
2020-05-06 20:33:27 GMT 47.152714 10.608074 38,000 335 417 0
2020-05-06 20:33:23 GMT 47.143295 10.614510 38,000 335 417 0
2020-05-06 20:33:20 GMT 47.139820 10.616878 38,000 336 416 0
2020-05-06 20:33:17 GMT 47.134747 10.620328 38,000 336 416 0
2020-05-06 20:33:14 GMT 47.128830 10.624397 38,000 336 416 0
2020-05-06 20:33:10 GMT 47.122501 10.628709 38,000 336 416 0
2020-05-06 20:33:07 GMT 47.117477 10.632156 38,000 336 416 0
2020-05-06 20:33:03 GMT 47.109055 10.637856 38,025 336 416 0
2020-05-06 20:33:00 GMT 47.103138 10.641879 38,025 335 416 0
2020-05-06 20:32:57 GMT 47.099304 10.644516 38,025 335 416 0
2020-05-06 20:32:53 GMT 47.090424 10.650558 38,025 335 416 0
2020-05-06 20:32:50 GMT 47.085541 10.653921 38,025 335 416 0
2020-05-06 20:32:47 GMT 47.081909 10.656457 38,025 335 416 0
2020-05-06 20:32:44 GMT 47.077011 10.659760 38,025 335 416 0
2020-05-06 20:32:41 GMT 47.069870 10.664635 38,025 335 416 0
2020-05-06 20:32:38 GMT 47.065887 10.667381 38,025 335 416 0
2020-05-06 20:32:34 GMT 47.059238 10.671880 38,000 335 416 0
2020-05-06 20:32:31 GMT 47.053185 10.676035 38,000 335 416 0
2020-05-06 20:32:28 GMT 47.048111 10.679486 38,000 335 416 0
2020-05-06 20:32:25 GMT 47.045013 10.681595 38,000 335 416 0
2020-05-06 20:32:22 GMT 47.038010 10.686387 38,000 335 416 0
2020-05-06 20:32:19 GMT 47.031960 10.690542 38,000 335 416 0
2020-05-06 20:32:16 GMT 47.028282 10.693007 38,000 336 415 0
2020-05-06 20:32:13 GMT 47.022556 10.696951 38,000 336 415 0
2020-05-06 20:32:10 GMT 47.017483 10.700331 38,000 336 414 0
2020-05-06 20:32:07 GMT 47.011230 10.704597 38,000 336 415 0
2020-05-06 20:32:04 GMT 47.005283 10.708642 38,000 336 416 0
2020-05-06 20:32:01 GMT 47.000954 10.711529 38,000 336 416 0
2020-05-06 20:31:58 GMT 46.995693 10.715121 38,000 336 416 0
2020-05-06 20:31:55 GMT 46.989761 10.719086 38,000 336 415 0
2020-05-06 20:31:52 GMT 46.984196 10.722868 38,000 336 415 0
2020-05-06 20:31:49 GMT 46.980194 10.725614 38,000 336 415 0
2020-05-06 20:31:46 GMT 46.974976 10.729111 38,000 336 415 0
2020-05-06 20:31:43 GMT 46.970078 10.732407 38,025 336 415 0
2020-05-06 20:31:39 GMT 46.963120 10.737144 38,025 336 415 0
2020-05-06 20:31:35 GMT 46.957352 10.741058 38,025 336 415 0
2020-05-06 20:31:32 GMT 46.951981 10.744770 38,000 336 416 0
2020-05-06 20:31:29 GMT 46.945496 10.749092 38,000 336 415 0
2020-05-06 20:31:26 GMT 46.941147 10.752045 38,000 336 416 0
2020-05-06 20:31:23 GMT 46.934711 10.756460 38,000 336 416 0
2020-05-06 20:31:20 GMT 46.930336 10.759348 38,000 336 416 -64
2020-05-06 20:31:17 GMT 46.925125 10.762894 38,025 336 415 0
2020-05-06 20:31:14 GMT 46.920044 10.766327 38,025 335 416 0
2020-05-06 20:31:11 GMT 46.913761 10.770616 38,025 335 416 0
2020-05-06 20:31:08 GMT 46.909061 10.773785 38,025 335 416 0
2020-05-06 20:31:05 GMT 46.904919 10.776602 38,025 335 416 0
2020-05-06 20:31:02 GMT 46.900040 10.779991 38,000 335 416 64
2020-05-06 20:30:59 GMT 46.892715 10.784935 38,000 336 416 0
2020-05-06 20:30:56 GMT 46.888531 10.787729 38,000 336 416 0
2020-05-06 20:30:53 GMT 46.884521 10.790428 38,000 336 416 0
2020-05-06 20:30:50 GMT 46.877033 10.795476 38,000 336 416 0
2020-05-06 20:30:47 GMT 46.874241 10.797377 38,000 336 416 0
2020-05-06 20:30:44 GMT 46.868500 10.801277 38,000 336 416 0
2020-05-06 20:30:41 GMT 46.861485 10.806015 38,000 336 416 0
2020-05-06 20:30:38 GMT 46.856094 10.809609 38,000 336 416 0
2020-05-06 20:30:34 GMT 46.850510 10.813360 38,000 336 416 0
2020-05-06 20:30:31 GMT 46.845978 10.816442 38,025 336 416 0
2020-05-06 20:30:28 GMT 46.840576 10.820126 38,025 336 416 0
2020-05-06 20:30:25 GMT 46.835495 10.823543 38,000 336 416 0
2020-05-06 20:30:21 GMT 46.828526 10.828262 38,025 335 416 0
2020-05-06 20:30:17 GMT 46.820343 10.833792 38,025 336 416 64
2020-05-06 20:30:14 GMT 46.808971 10.841446 38,000 336 416 0
2020-05-06 20:30:11 GMT 46.808971 10.841446 38,000 336 416 0
2020-05-06 20:30:08 GMT 46.806179 10.843300 38,000 336 416 0
2020-05-06 20:30:05 GMT 46.800247 10.847257 38,000 336 417 0
2020-05-06 20:30:02 GMT 46.795010 10.850784 38,000 336 417 0
2020-05-06 20:29:59 GMT 46.788723 10.854973 38,000 336 416 0
2020-05-06 20:29:56 GMT 46.779087 10.861427 38,000 336 416 0
2020-05-06 20:29:53 GMT 46.779087 10.861427 38,000 336 416 0
2020-05-06 20:29:50 GMT 46.771591 10.866508 38,000 336 416 0
2020-05-06 20:29:47 GMT 46.767216 10.869461 38,000 336 421 0
2020-05-06 20:29:44 GMT 46.763031 10.872244 38,000 336 416 0
2020-05-06 20:29:41 GMT 46.756042 10.877014 38,000 336 416 0
2020-05-06 20:29:38 GMT 46.752739 10.879280 38,000 336 417 0
2020-05-06 20:29:35 GMT 46.748550 10.882095 38,000 336 421 0
2020-05-06 20:29:32 GMT 46.742935 10.885843 38,000 336 417 0
2020-05-06 20:29:29 GMT 46.736115 10.890466 38,025 336 417 0
2020-05-06 20:29:26 GMT 46.730713 10.894083 38,025 336 417 0
2020-05-06 20:29:23 GMT 46.726685 10.896830 38,025 336 417 0
2020-05-06 20:29:19 GMT 46.720013 10.901253 38,000 336 417 0
2020-05-06 20:29:16 GMT 46.713169 10.905853 38,000 336 417 0
2020-05-06 20:29:13 GMT 46.710388 10.907749 38,000 336 417 0
2020-05-06 20:29:10 GMT 46.704620 10.911634 38,000 336 418 0
2020-05-06 20:29:07 GMT 46.696747 10.916927 38,000 336 418 0
2020-05-06 20:29:04 GMT 46.694130 10.918694 38,000 336 417 0
2020-05-06 20:29:01 GMT 46.688873 10.922219 38,000 336 417 0
2020-05-06 20:28:58 GMT 46.681652 10.927071 38,000 336 417 0
2020-05-06 20:28:55 GMT 46.672577 10.933272 38,000 336 418 0
2020-05-06 20:28:52 GMT 46.672577 10.933272 38,000 336 418 0
2020-05-06 20:28:48 GMT 46.663101 10.939636 38,000 335 419 0
2020-05-06 20:28:45 GMT 46.659393 10.942115 38,000 335 419 0
2020-05-06 20:28:42 GMT 46.655182 10.944995 38,000 335 419 0
2020-05-06 20:28:39 GMT 46.649021 10.949181 38,000 335 420 0
2020-05-06 20:28:36 GMT 46.644085 10.952477 38,000 336 421 0
2020-05-06 20:28:33 GMT 46.638638 10.956184 38,000 336 421 0
2020-05-06 20:28:30 GMT 46.634590 10.958931 38,000 336 421 0
2020-05-06 20:28:27 GMT 46.627533 10.963686 38,000 336 421 0
2020-05-06 20:28:24 GMT 46.622406 10.967102 38,000 336 421 0
2020-05-06 20:28:21 GMT 46.618156 10.969917 38,000 335 424 0
2020-05-06 20:28:18 GMT 46.613174 10.973282 38,000 335 424 0
2020-05-06 20:28:15 GMT 46.606613 10.977686 38,000 336 423 0
2020-05-06 20:28:12 GMT 46.600800 10.981639 38,000 335 425 0
2020-05-06 20:28:08 GMT 46.594925 10.985641 38,000 335 425 0
2020-05-06 20:28:05 GMT 46.589035 10.989611 38,000 335 425 0
2020-05-06 20:28:02 GMT 46.584778 10.992558 38,000 336 426 -64
2020-05-06 20:27:59 GMT 46.579605 10.996042 38,025 336 426 -64
2020-05-06 20:27:55 GMT 46.571915 11.001200 38,025 336 425 -64
2020-05-06 20:27:52 GMT 46.565826 11.005219 38,025 336 426 -64
2020-05-06 20:27:49 GMT 46.561363 11.008232 38,025 336 426 0
2020-05-06 20:27:45 GMT 46.554520 11.012764 38,025 336 427 64
2020-05-06 20:27:42 GMT 46.548065 11.017076 38,025 336 427 64
2020-05-06 20:27:39 GMT 46.543068 11.020386 38,000 336 427 64
2020-05-06 20:27:36 GMT 46.536255 11.024981 38,000 335 428 64
2020-05-06 20:27:33 GMT 46.531242 11.028351 38,000 336 429 64
2020-05-06 20:27:29 GMT 46.524586 11.032814 38,000 336 429 0
2020-05-06 20:27:25 GMT 46.518127 11.037173 38,000 336 430 -64
2020-05-06 20:27:22 GMT 46.511971 11.041260 38,000 336 430 -64
2020-05-06 20:27:18 GMT 46.504242 11.046410 38,000 336 430 -64
2020-05-06 20:27:15 GMT 46.499542 11.049567 38,000 336 429 -64
2020-05-06 20:27:12 GMT 46.492092 11.054375 38,025 337 430 0
2020-05-06 20:27:09 GMT 46.488647 11.056533 38,000 337 430 0
2020-05-06 20:27:06 GMT 46.483200 11.060005 38,025 337 430 0
2020-05-06 20:27:03 GMT 46.478622 11.062964 38,000 337 430 0
2020-05-06 20:27:00 GMT 46.471889 11.067215 38,000 336 431 0
2020-05-06 20:26:57 GMT 46.466263 11.070869 38,000 335 430 0
2020-05-06 20:26:53 GMT 46.459396 11.075425 38,000 335 431 64
2020-05-06 20:26:50 GMT 46.454014 11.079094 38,000 335 431 64
2020-05-06 20:26:47 GMT 46.447861 11.083329 38,000 336 431 0
2020-05-06 20:26:44 GMT 46.443558 11.086277 38,025 338 430 -64
2020-05-06 20:26:41 GMT 46.437717 11.090012 38,025 338 430 -64
2020-05-06 20:26:38 GMT 46.432205 11.093378 38,025 339 430 -64
2020-05-06 20:26:34 GMT 46.416164 11.101891 38,025 341 430 -64
2020-05-06 20:26:30 GMT 46.416164 11.101891 38,025 342 430 0
2020-05-06 20:26:27 GMT 46.408997 11.105302 38,025 344 429 0
2020-05-06 20:26:24 GMT 46.405792 11.106709 38,025 345 428 0
2020-05-06 20:26:21 GMT 46.399292 11.109455 38,025 346 427 64
2020-05-06 20:26:18 GMT 46.395676 11.110862 38,025 346 428 64
2020-05-06 20:26:15 GMT 46.390137 11.112939 38,000 347 427 64
2020-05-06 20:26:12 GMT 46.383408 11.115284 38,000 348 427 0
2020-05-06 20:26:09 GMT 46.377411 11.117092 38,000 350 426 0
2020-05-06 20:26:05 GMT 46.368896 11.119303 38,000 352 425 -64
2020-05-06 20:26:02 GMT 46.364227 11.120375 38,000 353 425 -64
2020-05-06 20:25:59 GMT 46.358395 11.121529 38,000 355 425 -64
2020-05-06 20:25:56 GMT 46.351364 11.122719 38,025 355 424 -64
2020-05-06 20:25:53 GMT 46.346466 11.123389 38,025 356 424 -64
2020-05-06 20:25:50 GMT 46.339600 11.124193 38,025 356 422 128
2020-05-06 20:25:47 GMT 46.335350 11.124619 38,000 356 422 320
2020-05-06 20:25:44 GMT 46.326782 11.125600 38,000 356 422 512
2020-05-06 20:25:41 GMT 46.321930 11.126136 37,950 356 421 960
2020-05-06 20:25:37 GMT 46.315933 11.126873 37,875 356 421 960
2020-05-06 20:25:34 GMT 46.308334 11.127744 37,800 356 420 960
2020-05-06 20:25:31 GMT 46.304077 11.128213 37,775 356 420 960
2020-05-06 20:25:28 GMT 46.296944 11.129013 37,725 356 420 960
2020-05-06 20:25:24 GMT 46.290150 11.129768 37,600 356 418 1024
2020-05-06 20:25:21 GMT 46.283569 11.130490 37,625 356 420 896
2020-05-06 20:25:18 GMT 46.278717 11.131026 37,625 356 420 896
2020-05-06 20:25:15 GMT 46.273529 11.131622 37,525 356 419 960
2020-05-06 20:25:12 GMT 46.266548 11.132378 37,500 356 418 1024
2020-05-06 20:25:09 GMT 46.262512 11.132835 37,450 356 418 1024
2020-05-06 20:25:06 GMT 46.255188 11.133682 37,375 356 418 1088
2020-05-06 20:25:03 GMT 46.249229 11.134369 37,300 356 418 960
2020-05-06 20:25:00 GMT 46.243835 11.134979 37,300 356 418 960
2020-05-06 20:24:56 GMT 46.235916 11.135849 37,250 356 418 960
2020-05-06 20:24:53 GMT 46.223812 11.137184 37,125 356 418 960
2020-05-06 20:24:50 GMT 46.223812 11.137184 37,075 356 417 1024
2020-05-06 20:24:47 GMT 46.218018 11.137859 37,075 356 417 1024
2020-05-06 20:24:43 GMT 46.210732 11.138626 37,000 356 417 960
2020-05-06 20:24:40 GMT 46.197464 11.140070 36,675 356 414 960
2020-05-06 20:24:37 GMT 46.197464 11.140070 36,900 356 416 896
2020-05-06 20:24:34 GMT 46.193226 11.140549 36,875 356 416 960
2020-05-06 20:24:31 GMT 46.188080 11.141075 36,850 356 416 960
2020-05-06 20:24:28 GMT 46.180798 11.141922 36,750 356 415 1088
2020-05-06 20:24:25 GMT 46.175812 11.142481 36,700 356 414 1088
2020-05-06 20:24:22 GMT 46.170273 11.143084 36,675 356 414 1024
2020-05-06 20:24:19 GMT 46.165146 11.143687 36,650 356 414 960
2020-05-06 20:24:16 GMT 46.159058 11.144325 36,575 356 413 960
2020-05-06 20:24:13 GMT 46.153702 11.144960 36,525 356 413 1024
2020-05-06 20:24:10 GMT 46.146069 11.145767 36,425 356 413 1344
2020-05-06 20:24:04 GMT 46.136398 11.146836 36,325 356 413 1472
2020-05-06 20:24:01 GMT 46.130287 11.147552 36,250 356 414 1600
2020-05-06 20:23:58 GMT 46.122467 11.148376 36,125 356 415 1536
2020-05-06 20:23:54 GMT 46.115570 11.149180 36,100 356 415 1536
2020-05-06 20:23:51 GMT 46.111015 11.149681 35,975 356 415 1216
2020-05-06 20:23:48 GMT 46.105270 11.150319 35,950 356 415 1152
2020-05-06 20:23:45 GMT 46.100121 11.150917 35,925 356 415 1152
2020-05-06 20:23:42 GMT 46.094955 11.151466 35,825 356 414 1216
2020-05-06 20:23:39 GMT 46.087326 11.152329 35,725 356 415 1792
2020-05-06 20:23:36 GMT 46.081966 11.152908 35,625 356 415 1792
2020-05-06 20:23:33 GMT 46.074692 11.153669 35,500 356 416 1792
2020-05-06 20:23:30 GMT 46.071808 11.154004 35,475 356 416 1792
2020-05-06 20:23:27 GMT 46.060867 11.155209 35,300 356 417 1792
2020-05-06 20:23:21 GMT 46.053383 11.155998 35,175 356 417 1728
2020-05-06 20:23:18 GMT 46.048599 11.156549 35,075 356 418 1600
2020-05-06 20:23:15 GMT 46.041870 11.157353 35,025 356 417 1472
2020-05-06 20:23:12 GMT 46.036858 11.157921 34,925 356 417 1280
2020-05-06 20:23:09 GMT 46.023777 11.159363 34,850 356 417 1344
2020-05-06 20:23:05 GMT 46.023777 11.159363 34,800 356 417 1408
2020-05-06 20:23:02 GMT 46.018982 11.159912 34,750 356 417 1536
2020-05-06 20:22:59 GMT 46.013214 11.160569 34,650 356 417 1792
2020-05-06 20:22:56 GMT 46.004738 11.161491 34,500 356 417 1792
2020-05-06 20:22:53 GMT 46.001106 11.161903 34,475 356 418 1728
2020-05-06 20:22:50 GMT 45.994949 11.162578 34,400 356 418 1600
2020-05-06 20:22:47 GMT 45.987232 11.163483 34,275 356 418 1600
2020-05-06 20:22:44 GMT 45.983185 11.163895 34,225 356 418 1664
2020-05-06 20:22:41 GMT 45.977596 11.164513 31,850 356 427 1536
2020-05-06 20:22:38 GMT 45.971420 11.165191 34,050 356 419 1856
2020-05-06 20:22:35 GMT 45.965652 11.165794 33,950 356 419 1856
2020-05-06 20:22:32 GMT 45.960068 11.166397 33,875 356 419 1856
2020-05-06 20:22:29 GMT 45.954273 11.167053 33,750 356 419 1792
2020-05-06 20:22:26 GMT 45.948269 11.167740 33,700 356 419 1728
2020-05-06 20:22:23 GMT 45.942490 11.168339 33,625 356 419 1664
2020-05-06 20:22:20 GMT 45.929928 11.169731 33,525 356 419 1536
2020-05-06 20:22:17 GMT 45.929928 11.169731 33,425 356 419 1600
2020-05-06 20:22:13 GMT 45.922943 11.170483 33,325 356 419 1792
2020-05-06 20:22:10 GMT 45.917358 11.171086 33,250 356 419 2048
2020-05-06 20:22:07 GMT 45.912735 11.171622 33,125 356 420 2176
2020-05-06 20:22:04 GMT 45.903999 11.172546 32,975 356 421 2304
2020-05-06 20:22:01 GMT 45.900135 11.173027 32,925 356 421 2304
2020-05-06 20:21:58 GMT 45.895065 11.173565 31,850 356 427 1536
2020-05-06 20:21:55 GMT 45.888657 11.174302 32,675 356 423 2432
2020-05-06 20:21:52 GMT 45.883026 11.174904 32,650 356 423 2496
2020-05-06 20:21:49 GMT 45.877350 11.175574 32,450 356 425 2624
2020-05-06 20:21:46 GMT 45.871307 11.176244 32,300 356 426 2752
2020-05-06 20:21:43 GMT 45.863251 11.177115 32,075 356 428 2880
2020-05-06 20:21:39 GMT 45.850368 11.178589 31,925 356 430 2880
2020-05-06 20:21:36 GMT 45.850368 11.178589 31,750 356 432 2752
2020-05-06 20:21:33 GMT 45.845016 11.179138 31,675 356 433 2624
2020-05-06 20:21:30 GMT 45.837433 11.179996 31,500 356 434 2304
2020-05-06 20:21:27 GMT 45.833054 11.180511 31,425 356 434 2176
2020-05-06 20:21:24 GMT 45.827839 11.181129 31,325 356 434 1984
2020-05-06 20:21:21 GMT 45.819038 11.182091 31,175 356 434 1536
2020-05-06 20:21:18 GMT 45.815231 11.182474 31,150 356 434 1472
2020-05-06 20:21:15 GMT 45.807816 11.183345 31,075 356 434 1344
2020-05-06 20:21:11 GMT 45.801636 11.184015 30,975 356 433 1344
2020-05-06 20:21:08 GMT 45.795624 11.184631 30,925 356 433 1472
2020-05-06 20:21:05 GMT 45.788452 11.185422 30,225 356 427 1536
2020-05-06 20:21:02 GMT 45.781658 11.186142 30,750 356 432 1536
2020-05-06 20:20:59 GMT 45.776871 11.186695 30,675 356 431 1536
2020-05-06 20:20:56 GMT 45.771931 11.187241 30,625 356 431 1472
2020-05-06 20:20:53 GMT 45.765152 11.187967 30,575 356 431 1472
2020-05-06 20:20:50 GMT 45.758194 11.188704 30,450 356 429 1408
2020-05-06 20:20:46 GMT 45.751076 11.189507 30,400 356 429 1408
2020-05-06 20:20:43 GMT 45.746559 11.189987 30,325 356 428 1408
2020-05-06 20:20:40 GMT 45.738831 11.190880 30,275 356 428 1472
2020-05-06 20:20:37 GMT 45.733524 11.191429 30,175 356 427 1536
2020-05-06 20:20:34 GMT 45.726425 11.192188 30,075 356 426 1536
2020-05-06 20:20:31 GMT 45.721527 11.192724 30,000 356 426 1536
2020-05-06 20:20:28 GMT 45.711914 11.193796 29,875 356 425 1472
2020-05-06 20:20:25 GMT 45.709763 11.193997 29,825 356 424 1472
2020-05-06 20:20:22 GMT 45.701706 11.194934 29,750 356 424 1408
2020-05-06 20:20:19 GMT 45.691952 11.195961 29,700 356 423 1408
2020-05-06 20:20:16 GMT 45.691952 11.195961 29,625 356 422 1408
2020-05-06 20:20:13 GMT 45.685730 11.196676 29,575 356 422 1408
2020-05-06 20:20:10 GMT 45.680466 11.197279 29,500 356 421 1472
2020-05-06 20:20:07 GMT 45.673279 11.198016 29,450 356 420 1472
2020-05-06 20:20:04 GMT 45.668259 11.198570 29,325 356 419 1536
2020-05-06 20:20:01 GMT 45.661507 11.199326 29,250 356 419 1664
2020-05-06 20:19:58 GMT 45.657410 11.199738 29,175 356 418 1728
2020-05-06 20:19:55 GMT 45.651443 11.200428 29,125 356 418 1728
2020-05-06 20:19:52 GMT 45.644348 11.201231 29,025 356 417 1792
2020-05-06 20:19:48 GMT 45.638351 11.201834 28,875 356 417 1856
2020-05-06 20:19:45 GMT 45.633545 11.202370 28,825 356 417 1920
2020-05-06 20:19:42 GMT 45.626640 11.203171 28,700 356 416 1920
2020-05-06 20:19:37 GMT 45.616863 11.204201 28,500 356 415 1664
2020-05-06 20:19:34 GMT 45.611115 11.204849 28,450 356 411 1536
2020-05-06 20:19:30 GMT 45.601730 11.205854 28,350 356 413 1408
2020-05-06 20:19:27 GMT 45.599453 11.206055 28,300 356 413 1408
2020-05-06 20:19:24 GMT 45.592209 11.206859 28,175 356 411 1600
2020-05-06 20:19:21 GMT 45.583115 11.207909 28,075 356 409 2112
2020-05-06 20:19:18 GMT 45.580856 11.208131 28,050 356 410 1856
2020-05-06 20:19:15 GMT 45.575180 11.208734 27,925 356 410 2112
2020-05-06 20:19:12 GMT 45.568542 11.209471 27,825 356 410 2176
2020-05-06 20:19:07 GMT 45.558533 11.210587 27,625 356 409 2176
2020-05-06 20:19:04 GMT 45.554764 11.210999 27,575 356 409 2112
2020-05-06 20:19:01 GMT 45.548721 11.211615 27,450 356 409 2048
2020-05-06 20:18:58 GMT 45.542908 11.212267 27,350 356 409 1984
2020-05-06 20:18:55 GMT 45.529903 11.213625 27,225 356 408 1984
2020-05-06 20:18:52 GMT 45.529903 11.213625 27,125 356 408 2048
2020-05-06 20:18:49 GMT 45.525009 11.214164 27,075 356 408 2112
2020-05-06 20:18:46 GMT 45.521057 11.214629 26,950 356 408 2112
2020-05-06 20:18:43 GMT 45.515240 11.215232 26,875 356 407 2048
2020-05-06 20:18:40 GMT 45.509949 11.215799 26,800 356 407 1920
2020-05-06 20:18:37 GMT 45.504349 11.216371 26,700 356 406 1536
2020-05-06 20:18:34 GMT 45.491089 11.217826 26,550 356 403 1344
2020-05-06 20:18:31 GMT 45.491089 11.217826 26,450 356 402 1728
2020-05-06 20:18:28 GMT 45.485493 11.218381 26,425 356 402 1984
2020-05-06 20:18:25 GMT 45.479919 11.219003 26,325 356 402 2560
2020-05-06 20:18:19 GMT 45.469757 11.220115 26,000 356 403 2944
2020-05-06 20:18:16 GMT 45.457489 11.221553 25,825 356 404 2624
2020-05-06 20:18:12 GMT 45.457489 11.221553 25,750 356 404 2432
2020-05-06 20:18:09 GMT 45.452820 11.222011 25,650 356 403 2240
2020-05-06 20:18:06 GMT 45.445587 11.222861 25,525 356 402 2240
2020-05-06 20:18:03 GMT 45.441128 11.223338 25,450 356 402 2304
2020-05-06 20:18:00 GMT 45.434418 11.224038 25,225 356 401 2368
2020-05-06 20:17:57 GMT 45.429817 11.224544 25,075 356 401 2304
2020-05-06 20:17:53 GMT 45.421829 11.225412 25,025 356 401 2176
2020-05-06 20:17:50 GMT 45.415573 11.226085 24,825 356 399 2176
2020-05-06 20:17:47 GMT 45.410591 11.226621 24,800 356 399 2112
2020-05-06 20:17:43 GMT 45.404491 11.227290 24,700 356 399 2176
2020-05-06 20:17:40 GMT 45.396790 11.228158 24,525 356 398 2304
2020-05-06 20:17:37 GMT 45.392574 11.228630 24,400 356 398 2304
2020-05-06 20:17:34 GMT 45.385941 11.229335 24,300 356 397 2304
2020-05-06 20:17:30 GMT 45.380844 11.229903 24,200 356 397 2240
2020-05-06 20:17:27 GMT 45.372978 11.230707 24,025 356 396 2176
2020-05-06 20:17:24 GMT 45.368591 11.231232 23,975 356 395 2176
2020-05-06 20:17:21 GMT 45.357845 11.232382 23,750 356 394 2304
2020-05-06 20:17:18 GMT 45.357845 11.232382 23,750 356 394 2304
2020-05-06 20:17:15 GMT 45.352352 11.232985 23,650 356 394 2368
2020-05-06 20:17:12 GMT 45.346722 11.233587 23,550 356 394 2432
2020-05-06 20:17:09 GMT 45.340019 11.234324 23,325 356 393 2432
2020-05-06 20:17:06 GMT 45.335873 11.234793 23,150 356 392 2432
2020-05-06 20:17:02 GMT 45.328796 11.235530 23,025 356 391 2432
2020-05-06 20:16:58 GMT 45.322140 11.236267 22,875 356 390 2432
2020-05-06 20:16:55 GMT 45.315628 11.236921 22,775 356 390 2432
2020-05-06 20:16:52 GMT 45.310776 11.237444 22,675 356 390 2432
2020-05-06 20:16:48 GMT 45.303040 11.238294 22,500 356 389 2432
2020-05-06 20:16:44 GMT 45.297455 11.238883 22,375 356 389 2368
2020-05-06 20:16:41 GMT 45.292068 11.239483 22,250 356 388 2368
2020-05-06 20:16:38 GMT 45.285645 11.240191 22,150 356 388 2368
2020-05-06 20:16:35 GMT 45.279419 11.240845 21,975 356 386 2432
2020-05-06 20:16:32 GMT 45.275124 11.241291 21,875 356 386 2496
2020-05-06 20:16:28 GMT 45.265488 11.242363 21,650 356 385 2688
2020-05-06 20:16:24 GMT 45.260880 11.242832 21,450 356 381 2432
2020-05-06 20:16:21 GMT 45.254314 11.243569 21,350 356 385 2688
2020-05-06 20:16:17 GMT 45.246689 11.244376 21,175 356 383 2560
2020-05-06 20:16:14 GMT 45.243164 11.244768 20,975 356 381 2432
2020-05-06 20:16:09 GMT 45.232544 11.245880 20,850 356 382 2496
2020-05-06 20:16:06 GMT 45.227966 11.246383 20,675 356 381 2432
2020-05-06 20:16:03 GMT 45.221821 11.247052 20,575 356 381 2432
2020-05-06 20:16:00 GMT 45.217255 11.247580 20,475 356 380 2368
2020-05-06 20:15:57 GMT 45.212494 11.248104 20,325 356 379 2368
2020-05-06 20:15:54 GMT 45.207623 11.248660 20,250 356 378 2304
2020-05-06 20:15:51 GMT 45.203434 11.249062 20,075 356 377 2304
2020-05-06 20:15:48 GMT 45.198032 11.249665 20,050 356 376 2304
2020-05-06 20:15:45 GMT 45.192307 11.250268 19,950 356 375 2368
2020-05-06 20:15:41 GMT 45.185230 11.251005 19,775 356 374 2368
2020-05-06 20:15:37 GMT 45.176247 11.251943 19,550 356 372 2432
2020-05-06 20:15:34 GMT 45.172848 11.252345 17,950 356 369 2496
2020-05-06 20:15:31 GMT 45.168045 11.252877 17,950 356 369 2496
2020-05-06 20:15:27 GMT 45.161537 11.253550 19,100 356 369 2496
2020-05-06 20:15:24 GMT 45.146408 11.255225 18,950 356 360 2816
2020-05-06 20:15:19 GMT 45.141541 11.255755 18,775 356 366 2432
2020-05-06 20:15:16 GMT 45.141541 11.255755 18,650 356 365 2432
2020-05-06 20:15:13 GMT 45.137283 11.256213 18,600 356 364 2432
2020-05-06 20:15:10 GMT 45.132954 11.256632 18,500 356 363 2432
2020-05-06 20:15:07 GMT 45.126389 11.257369 18,350 356 362 2560
2020-05-06 20:15:03 GMT 45.120525 11.257972 17,800 356 360 2816
2020-05-06 20:15:00 GMT 45.115730 11.258441 18,000 356 360 2688
2020-05-06 20:14:57 GMT 45.111374 11.258959 17,900 356 360 2752
2020-05-06 20:14:54 GMT 45.104744 11.259647 17,800 356 359 2816
2020-05-06 20:14:51 GMT 45.101437 11.259981 17,600 356 358 3008
2020-05-06 20:14:48 GMT 45.095291 11.260651 17,450 356 352 2112
2020-05-06 20:14:45 GMT 45.090683 11.261183 17,300 356 358 2816
2020-05-06 20:14:42 GMT 45.085556 11.261706 17,200 356 355 2112
2020-05-06 20:14:39 GMT 45.081932 11.262125 17,100 356 357 2368
2020-05-06 20:14:35 GMT 45.073227 11.263063 16,925 356 355 2048
2020-05-06 20:14:32 GMT 45.069130 11.263465 16,875 356 354 2048
2020-05-06 20:14:27 GMT 45.061295 11.264387 16,650 356 353 2048
2020-05-06 20:14:24 GMT 45.056049 11.264939 16,550 356 353 2112
2020-05-06 20:14:21 GMT 45.051998 11.265341 16,475 356 353 2176
2020-05-06 20:14:18 GMT 45.044861 11.266153 16,300 356 352 2112
2020-05-06 20:14:15 GMT 45.041573 11.266479 16,150 356 351 2048
2020-05-06 20:14:12 GMT 45.035610 11.267149 16,100 356 351 2048
2020-05-06 20:14:07 GMT 45.027977 11.267953 15,950 356 350 2112
2020-05-06 20:14:04 GMT 45.022346 11.268623 15,800 356 349 2304
2020-05-06 20:14:01 GMT 45.018948 11.268958 15,750 356 349 2368
2020-05-06 20:13:57 GMT 45.012497 11.269684 15,575 356 349 2496
2020-05-06 20:13:54 GMT 45.007030 11.270231 15,425 356 349 2368
2020-05-06 20:13:51 GMT 45.002701 11.270700 15,325 356 349 2304
2020-05-06 20:13:48 GMT 44.998352 11.271188 15,225 356 349 2048
2020-05-06 20:13:44 GMT 44.990131 11.272107 15,075 356 347 1664
2020-05-06 20:13:40 GMT 44.985989 11.272509 15,000 356 345 1664
2020-05-06 20:13:33 GMT 44.969925 11.274196 14,675 356 342 2432
2020-05-06 20:13:26 GMT 44.964066 11.274850 14,525 356 342 2624
2020-05-06 20:13:23 GMT 44.956970 11.275569 14,300 356 342 2816
2020-05-06 20:13:20 GMT 44.953629 11.275896 14,225 356 343 2880
2020-05-06 20:13:13 GMT 44.941715 11.277131 13,950 356 344 2688
2020-05-06 20:13:10 GMT 44.937607 11.277531 13,825 357 344 2560
2020-05-06 20:13:05 GMT 44.929825 11.278316 13,575 356 342 2240
2020-05-06 20:13:02 GMT 44.924286 11.278839 13,475 356 342 2176
2020-05-06 20:12:59 GMT 44.920944 11.279166 13,350 356 341 2240
2020-05-06 20:12:53 GMT 44.911331 11.280147 13,125 356 341 2368
2020-05-06 20:12:50 GMT 44.905197 11.280801 12,975 356 340 2240
2020-05-06 20:12:42 GMT 44.891674 11.282155 12,675 356 337 1920
2020-05-06 20:12:39 GMT 44.888992 11.282436 12,500 356 337 1856
2020-05-06 20:12:34 GMT 44.881664 11.283160 12,450 356 336 1920
2020-05-06 20:12:31 GMT 44.875938 11.283763 12,350 356 335 1984
2020-05-06 20:12:27 GMT 44.871277 11.284267 12,275 356 333 2048
2020-05-06 20:12:24 GMT 44.865280 11.284921 12,125 356 333 2048
2020-05-06 20:12:21 GMT 44.859558 11.285509 12,025 356 332 2048
2020-05-06 20:12:18 GMT 44.856628 11.285836 11,775 356 330 2048
2020-05-06 20:12:12 GMT 44.846657 11.286777 11,675 356 329 2048
2020-05-06 20:12:09 GMT 44.841209 11.287380 11,600 356 329 1984
2020-05-06 20:12:03 GMT 44.833740 11.288191 11,450 356 327 1600
2020-05-06 20:12:00 GMT 44.828316 11.288787 11,350 356 324 1408
2020-05-06 20:11:57 GMT 44.824127 11.289302 11,325 356 322 1280
2020-05-06 20:11:51 GMT 44.814972 11.290349 11,200 356 316 1024
2020-05-06 20:11:48 GMT 44.809570 11.290937 11,100 356 311 960
2020-05-06 20:11:41 GMT 44.800987 11.291869 11,000 356 304 1024
2020-05-06 20:11:38 GMT 44.796055 11.292472 10,975 356 301 1024
2020-05-06 20:11:33 GMT 44.790329 11.293141 10,850 356 294 1088
2020-05-06 20:11:30 GMT 44.784714 11.293749 10,825 356 292 1152
2020-05-06 20:11:26 GMT 44.779999 11.294338 10,750 356 289 1216
2020-05-06 20:11:23 GMT 44.776131 11.294816 10,700 355 286 1216
2020-05-06 20:11:20 GMT 44.771381 11.295419 10,650 355 283 1152
2020-05-06 20:11:17 GMT 44.766449 11.296038 10,550 355 278 1152
2020-05-06 20:11:12 GMT 44.762833 11.296496 10,500 355 275 1536
2020-05-06 20:11:08 GMT 44.757156 11.297215 10,375 355 273 2432
2020-05-06 20:11:05 GMT 44.753880 11.297630 10,275 355 272 2624
2020-05-06 20:11:00 GMT 44.747589 11.298392 10,100 355 272 2816
2020-05-06 20:10:57 GMT 44.742462 11.298981 9,800 355 272 2880
2020-05-06 20:10:52 GMT 44.737492 11.299639 9,600 355 271 2816
2020-05-06 20:10:49 GMT 44.732327 11.300242 9,400 355 271 2816
2020-05-06 20:10:46 GMT 44.728363 11.300746 9,250 355 271 2816
2020-05-06 20:10:42 GMT 44.724598 11.301247 9,125 356 270 2816
2020-05-06 20:10:39 GMT 44.719620 11.301793 8,925 356 270 2816
2020-05-06 20:10:35 GMT 44.714996 11.302316 8,750 356 269 2816
2020-05-06 20:10:31 GMT 44.710648 11.302774 8,475 357 269 2816
2020-05-06 20:10:28 GMT 44.706528 11.303166 8,450 357 269 2752
2020-05-06 20:10:24 GMT 44.702637 11.303493 8,300 358 269 2752
2020-05-06 20:10:21 GMT 44.698563 11.303755 8,200 358 269 2752
2020-05-06 20:10:18 GMT 44.693710 11.304147 7,825 358 268 2880
2020-05-06 20:10:15 GMT 44.689865 11.304408 7,825 358 268 2880
2020-05-06 20:10:11 GMT 44.686378 11.304664 7,675 359 268 2816
2020-05-06 20:10:07 GMT 44.681072 11.304865 6,025 5 267 2624
2020-05-06 20:10:04 GMT 44.676510 11.304597 7,325 8 266 2688
2020-05-06 20:10:01 GMT 44.673523 11.304082 7,250 10 266 2688
2020-05-06 20:09:55 GMT 44.667107 11.301850 6,875 25 266 2752
2020-05-06 20:09:52 GMT 44.662949 11.299635 6,875 25 266 2752
2020-05-06 20:09:47 GMT 44.656864 11.294816 6,575 37 265 2368
2020-05-06 20:09:44 GMT 44.653606 11.291400 6,425 44 263 2240
2020-05-06 20:09:40 GMT 44.650772 11.287667 6,325 49 262 2176
2020-05-06 20:09:36 GMT 44.647476 11.282436 6,175 52 261 2048
2020-05-06 20:09:33 GMT 44.645321 11.278404 6,050 54 257 1984
2020-05-06 20:09:30 GMT 44.643082 11.274000 5,975 55 255 1984
2020-05-06 20:09:26 GMT 44.640663 11.269092 5,850 55 253 2240
2020-05-06 20:09:22 GMT 44.637917 11.263532 5,675 55 251 2432
2020-05-06 20:09:12 GMT 44.631317 11.250196 5,275 55 247 2496
2020-05-06 20:09:05 GMT 44.627060 11.241499 4,600 54 221 1344
2020-05-06 20:09:01 GMT 44.624512 11.236267 4,875 55 242 2048
2020-05-06 20:08:54 GMT 44.619781 11.226654 4,650 55 234 1472
2020-05-06 20:08:51 GMT 44.618366 11.223740 4,600 54 231 1344
2020-05-06 20:08:44 GMT 44.614014 11.215145 4,450 54 222 1344
2020-05-06 20:08:40 GMT 44.611679 11.210632 4,350 54 218 1344
2020-05-06 20:08:34 GMT 44.608170 11.203643 4,250 55 210 1600
2020-05-06 20:08:31 GMT 44.606506 11.200300 4,125 54 208 2048
2020-05-06 20:08:26 GMT 44.602676 11.192925 3,925 43 203 1024
2020-05-06 20:08:23 GMT 44.602112 11.191995 3,925 43 203 1024
2020-05-06 20:08:19 GMT 44.598312 11.187286 3,825 24 201 832
2020-05-06 20:08:15 GMT 44.595291 11.184867 3,725 9 197 896
2020-05-06 20:08:11 GMT 44.592110 11.183144 3,650 5 197 960
2020-05-06 20:08:04 GMT 44.581867 11.182608 3,575 351 195 960
2020-05-06 20:08:00 GMT 44.581867 11.182608 3,550 343 193 832
2020-05-06 20:07:49 GMT 44.573273 11.188660 3,425 318 186 640
2020-05-06 20:07:40 GMT 44.568367 11.197748 3,200 298 178 1920
2020-05-06 20:07:29 GMT 44.564548 11.208265 2,875 297 176 2048
2020-05-06 20:07:23 GMT 44.562687 11.213491 2,700 297 176 1984
2020-05-06 20:07:20 GMT 44.561710 11.216237 2,600 296 175 1984
2020-05-06 20:07:13 GMT 44.558823 11.224611 2,350 296 173 1920
2020-05-06 20:07:08 GMT 44.557011 11.229903 2,275 296 173 1920
2020-05-06 20:07:00 GMT 44.554504 11.237052 1,950 298 171 2368
2020-05-06 20:06:57 GMT 44.553425 11.240019 1,800 298 171 2688
2020-05-06 20:06:50 GMT 44.550957 11.246717 1,500 298 171 2880
2020-05-06 20:06:47 GMT 44.549835 11.249804 1,325 298 172 2880
2020-05-06 20:06:40 GMT 44.547134 11.256866 1,000 299 172 2688
2020-05-06 20:06:36 GMT 44.545670 11.260725 850 298 170 2432
2020-05-06 20:06:30 GMT 44.543427 11.266806 600 298 167 2112
2020-05-06 20:06:19 GMT 44.539627 11.277139 225 297 163 2304
2020-05-06 20:06:09 GMT 44.536285 11.286360 -25 297 146 192
2020-05-06 20:05:58 GMT 44.533314 11.294615 0 297 106 0
2020-05-06 20:05:49 GMT 44.531639 11.299259 0 295 61 0
2020-05-06 20:05:39 GMT 44.530655 11.301989 0 298 19 0
2020-05-06 20:05:29 GMT 44.530357 11.302805 0 298 13 0
2020-05-06 20:05:19 GMT 44.529999 11.303408 0 345 13 0
2020-05-06 20:04:58 GMT 44.528927 11.303002 0 50 12 0
2020-05-06 20:02:46 GMT 44.533024 11.289924 0 118 18 0
2020-05-06 20:02:19 GMT 44.533985 11.287259 0 115 18 0
2020-05-06 20:01:57 GMT 44.534794 11.285052 0 118 15 0
2020-05-06 20:01:27 GMT 44.535397 11.283378 0 92 5 0
2020-05-06 20:01:17 GMT 44.535408 11.283093 0 33 5 0
2020-05-06 20:01:06 GMT 44.535198 11.282925 0 343 6 0
2020-05-06 20:00:56 GMT 44.534977 11.283110 0 298 6 0
2020-05-06 20:00:46 GMT 44.534878 11.283384 0 298 4 0
2020-05-06 20:00:34 GMT 44.534828 11.283528 0 298 0 0
2020-05-06 20:00:24 GMT 44.534828 11.283545 0 298 0 0
2020-05-06 20:00:14 GMT 44.534821 11.283548 0 298 0 0
2020-05-06 19:59:43 GMT 44.534828 11.283545 0 298 0 0
2020-05-06 19:59:24 GMT 44.534821 11.283548 0 298 0 0
2020-05-06 19:58:45 GMT 44.534828 11.283545 0 298 0 0
2020-05-06 19:58:35 GMT 44.534821 11.283548 0 298 0 0
2020-05-06 19:58:24 GMT 44.534828 11.283545 0 298 0 0
2020-05-06 19:58:15 GMT 44.534801 11.283562 0 0 0 0
2020-05-06 19:57:50 GMT 44.534821 11.283548 0 298 0
2020-05-06 19:57:34 GMT 44.534828 11.283545 0 298 0
2020-05-06 19:57:24 GMT 44.534840 11.283512 0 298 3
2020-05-06 19:57:14 GMT 44.534901 11.283384 0 303 3
2020-05-06 19:57:04 GMT 44.534935 11.283270 0 295 3
2020-05-06 19:56:54 GMT 44.534946 11.283122 0 281 3
2020-05-06 19:56:44 GMT 44.534931 11.282959 0 267 3
2020-05-06 19:56:34 GMT 44.534885 11.282825 0 253 3
2020-05-06 19:56:24 GMT 44.534817 11.282725 0 236 3
2020-05-06 19:56:13 GMT 44.534710 11.282641 0 219 3
2020-05-06 19:56:03 GMT 44.534615 11.282567 0 210 3
2020-05-06 19:55:54 GMT 44.534512 11.282507 0 208 3
2020-05-06 19:55:38 GMT 44.534340 11.282452 0 194 3
2020-05-06 19:55:32 GMT 44.534283 11.282469 0 185 3
2020-05-06 19:55:23 GMT 44.534187 11.282507 0 171 2

Making use of Plane Finder data

You are free to use the raw flight data, aircraft information and images provided in this report for your own purposes provided the data is correctly attributed to Plane Finder. We ask that you please credit Plane Finder and link to planefinder.net in close proximity to the content.

Optionally one of the following logos (no smaller then 150x24px) can be used and must link to planefinder.net

Embedding the Plane Finder map

You are welcome to embed the Plane Finder playback map on your website to offer visitors a more interactive experience. We suggest using the following HTML code:

<iframe src="//planefinder.net/data/report/S66497-OY-SRL-7700-squawk-2020-05-06/map" width="800" height="600" seamless="seamless"></iframe>

Where our data comes from

Plane Finder has a global network of data feeds and antenna radars that receive data broadcast directly from aircraft. The primary technologies used are ADS-B and MLAT. We also show feeds from the FAA and a FLARM glider feed.

Click here to find out more about the Plane Finder network.

How we collect our data